Observation data for Weinert on 07/03/2020      Previous  Date  Next       Current Mesonet Observations  Soil Data  Daily Summary Page  Observations in Plain Language
KWE1 030500Z 14006KT 28/20 A2997 RMK A01 T02770199  RH  062%=      5-min Rain = 0
KWE1 030501Z 14006KT 28/20 A2998 RMK A01 T02770199  RH  062%=      5-min Rain = 0
KWE1 030502Z 14007KT 28/20 A2998 RMK A01 T02770199  RH  062%=      5-min Rain = 0
KWE1 030503Z 13007KT 28/20 A2998 RMK A01 T02780199  RH  062%=      5-min Rain = 0
KWE1 030504Z 12006KT 28/20 A2998 RMK A01 T02780199  RH  062%=      5-min Rain = 0
KWE1 030505Z 12007KT 28/20 A2998 RMK A01 T02780199  RH  062%=      5-min Rain = 0
KWE1 030506Z 11007KT 28/20 A2998 RMK A01 T02780199  RH  062%=      5-min Rain = 0
KWE1 030507Z 12006KT 28/20 A2998 RMK A01 T02770199  RH  063%=      5-min Rain = 0
KWE1 030508Z 13007KT 28/20 A2998 RMK A01 T02760199  RH  063%=      5-min Rain = 0
KWE1 030509Z 12008KT 28/20 A2997 RMK A01 T02750199  RH  063%=      5-min Rain = 0
KWE1 030510Z 13007KT 28/20 A2997 RMK A01 T02760199  RH  063%=      5-min Rain = 0
KWE1 030511Z 13007KT 28/20 A2997 RMK A01 T02760199  RH  063%=      5-min Rain = 0
KWE1 030512Z 13007KT 28/20 A2997 RMK A01 T02760199  RH  063%=      5-min Rain = 0
KWE1 030513Z 13008KT 28/20 A2997 RMK A01 T02750199  RH  063%=      5-min Rain = 0
KWE1 030514Z 13007KT 28/20 A2997 RMK A01 T02750199  RH  063%=      5-min Rain = 0
KWE1 030515Z 14006KT 27/20 A2997 RMK A01 T02740199  RH  063%=      5-min Rain = 0
KWE1 030516Z 14006KT 27/20 A2997 RMK A01 T02740199  RH  064%=      5-min Rain = 0
KWE1 030517Z 16006KT 27/20 A2997 RMK A01 T02730199  RH  064%=      5-min Rain = 0
KWE1 030518Z 15006KT 27/20 A2996 RMK A01 T02730199  RH  064%=      5-min Rain = 0
KWE1 030519Z 15005KT 27/20 A2996 RMK A01 T02720198  RH  064%=      5-min Rain = 0
KWE1 030520Z 15005KT 27/20 A2996 RMK A01 T02720199  RH  064%=      5-min Rain = 0
KWE1 030521Z 15005KT 27/20 A2996 RMK A01 T02710198  RH  064%=      5-min Rain = 0
KWE1 030522Z 14005KT 27/20 A2996 RMK A01 T02710198  RH  064%=      5-min Rain = 0
KWE1 030523Z 14006KT 27/20 A2997 RMK A01 T02710199  RH  064%=      5-min Rain = 0
KWE1 030524Z 14007KT 27/20 A2997 RMK A01 T02710199  RH  064%=      5-min Rain = 0
KWE1 030525Z 13006KT 27/20 A2997 RMK A01 T02710198  RH  064%=      5-min Rain = 0
KWE1 030526Z 12005KT 27/20 A2997 RMK A01 T02710198  RH  064%=      5-min Rain = 0
KWE1 030527Z 12005KT 27/20 A2997 RMK A01 T02710199  RH  065%=      5-min Rain = 0
KWE1 030528Z 12005KT 27/20 A2997 RMK A01 T02700198  RH  065%=      5-min Rain = 0
KWE1 030529Z 12005KT 27/20 A2997 RMK A01 T02700199  RH  065%=      5-min Rain = 0
KWE1 030530Z 13005KT 27/20 A2997 RMK A01 T02690199  RH  065%=      5-min Rain = 0
KWE1 030531Z 13006KT 27/20 A2997 RMK A01 T02680198  RH  065%=      5-min Rain = 0
KWE1 030532Z 14005KT 27/20 A2997 RMK A01 T02680198  RH  066%=      5-min Rain = 0
KWE1 030533Z 13005KT 27/20 A2996 RMK A01 T02680198  RH  066%=      5-min Rain = 0
KWE1 030534Z 14006KT 27/20 A2996 RMK A01 T02680198  RH  065%=      5-min Rain = 0
KWE1 030535Z 14006KT 27/20 A2996 RMK A01 T02680198  RH  065%=      5-min Rain = 0
KWE1 030536Z 15005KT 27/20 A2996 RMK A01 T02680198  RH  065%=      5-min Rain = 0
KWE1 030537Z 14005KT 27/20 A2996 RMK A01 T02690199  RH  065%=      5-min Rain = 0
KWE1 030538Z 13005KT 27/20 A2996 RMK A01 T02680198  RH  066%=      5-min Rain = 0
KWE1 030539Z 13005KT 27/20 A2996 RMK A01 T02670198  RH  066%=      5-min Rain = 0
KWE1 030540Z 13004KT 27/20 A2996 RMK A01 T02670198  RH  066%=      5-min Rain = 0
KWE1 030541Z 12004KT 27/20 A2996 RMK A01 T02670198  RH  066%=      5-min Rain = 0
KWE1 030542Z 12005KT 27/20 A2996 RMK A01 T02660198  RH  066%=      5-min Rain = 0
KWE1 030543Z 12006KT 27/20 A2996 RMK A01 T02660198  RH  066%=      5-min Rain = 0
KWE1 030544Z 11005KT 27/20 A2996 RMK A01 T02650198  RH  067%=      5-min Rain = 0
KWE1 030545Z 11005KT 26/20 A2997 RMK A01 T02640198  RH  067%=      5-min Rain = 0
KWE1 030546Z 10005KT 26/20 A2997 RMK A01 T02640198  RH  067%=      5-min Rain = 0
KWE1 030547Z 11005KT 26/20 A2997 RMK A01 T02630199  RH  068%=      5-min Rain = 0
KWE1 030548Z 11005KT 26/20 A2997 RMK A01 T02620198  RH  068%=      5-min Rain = 0
KWE1 030549Z 11005KT 26/20 A2997 RMK A01 T02620198  RH  068%=      5-min Rain = 0
KWE1 030550Z 11006KT 26/20 A2997 RMK A01 T02620198  RH  068%=      5-min Rain = 0
KWE1 030551Z 10005KT 26/20 A2997 RMK A01 T02620198  RH  068%=      5-min Rain = 0
KWE1 030552Z 10005KT 26/20 A2997 RMK A01 T02610198  RH  068%=      5-min Rain = 0
KWE1 030553Z 10005KT 26/20 A2997 RMK A01 T02610198  RH  068%=      5-min Rain = 0
KWE1 030554Z 10005KT 26/20 A2997 RMK A01 T02600198  RH  068%=      5-min Rain = 0
KWE1 030555Z 10004KT 26/20 A2997 RMK A01 T02600198  RH  068%=      5-min Rain = 0
KWE1 030556Z 11004KT 26/20 A2997 RMK A01 T02600198  RH  069%=      5-min Rain = 0
KWE1 030557Z 11004KT 26/20 A2997 RMK A01 T02590197  RH  069%=      5-min Rain = 0
KWE1 030558Z 10003KT 26/20 A2997 RMK A01 T02590198  RH  069%=      5-min Rain = 0
KWE1 030559Z 09003KT 26/20 A2997 RMK A01 T02590198  RH  069%=      5-min Rain = 0
KWE1 030600Z 08003KT 26/20 A2997 RMK A01 T02580197  RH  069%=      5-min Rain = 0
KWE1 030601Z 09003KT 26/20 A2997 RMK A01 T02570197  RH  069%=      5-min Rain = 0
KWE1 030602Z 10004KT 26/20 A2997 RMK A01 T02560197  RH  070%=      5-min Rain = 0
KWE1 030603Z 10003KT 26/20 A2997 RMK A01 T02550196  RH  070%=      5-min Rain = 0
KWE1 030604Z 11003KT 25/20 A2997 RMK A01 T02540196  RH  070%=      5-min Rain = 0
KWE1 030605Z 11003KT 25/20 A2997 RMK A01 T02540196  RH  070%=      5-min Rain = 0
KWE1 030606Z 12004KT 25/20 A2997 RMK A01 T02540196  RH  070%=      5-min Rain = 0
KWE1 030607Z 12004KT 25/20 A2997 RMK A01 T02540196  RH  070%=      5-min Rain = 0
KWE1 030608Z 14004KT 25/20 A2997 RMK A01 T02540196  RH  070%=      5-min Rain = 0
KWE1 030609Z 14005KT 26/20 A2997 RMK A01 T02550197  RH  070%=      5-min Rain = 0
KWE1 030610Z 14006KT 26/20 A2996 RMK A01 T02560197  RH  070%=      5-min Rain = 0
KWE1 030611Z 14005KT 26/20 A2996 RMK A01 T02570197  RH  069%=      5-min Rain = 0
KWE1 030612Z 15005KT 26/20 A2996 RMK A01 T02580197  RH  069%=      5-min Rain = 0
KWE1 030613Z 14006KT 26/20 A2996 RMK A01 T02580197  RH  069%=      5-min Rain = 0
KWE1 030614Z 14007KT 26/20 A2996 RMK A01 T02590197  RH  069%=      5-min Rain = 0
KWE1 030615Z 14006KT 26/20 A2996 RMK A01 T02590197  RH  069%=      5-min Rain = 0
KWE1 030616Z 15006KT 26/20 A2996 RMK A01 T02590197  RH  068%=      5-min Rain = 0
KWE1 030617Z 15006KT 26/20 A2996 RMK A01 T02600197  RH  068%=      5-min Rain = 0
KWE1 030618Z 15006KT 26/20 A2996 RMK A01 T02600197  RH  068%=      5-min Rain = 0
KWE1 030619Z 15008KT 26/20 A2996 RMK A01 T02600197  RH  068%=      5-min Rain = 0
KWE1 030620Z 15008KT 26/20 A2996 RMK A01 T02600197  RH  068%=      5-min Rain = 0
KWE1 030621Z 15007KT 26/20 A2996 RMK A01 T02610197  RH  068%=      5-min Rain = 0
KWE1 030622Z 15008KT 26/20 A2996 RMK A01 T02610197  RH  068%=      5-min Rain = 0
KWE1 030623Z 15008KT 26/20 A2996 RMK A01 T02620197  RH  067%=      5-min Rain = 0
KWE1 030624Z 15008KT 26/20 A2996 RMK A01 T02620197  RH  067%=      5-min Rain = 0
KWE1 030625Z 15007KT 26/20 A2996 RMK A01 T02620197  RH  067%=      5-min Rain = 0
KWE1 030626Z 15009KT 26/20 A2996 RMK A01 T02630197  RH  067%=      5-min Rain = 0
KWE1 030627Z 15008KT 26/20 A2996 RMK A01 T02630197  RH  067%=      5-min Rain = 0
KWE1 030628Z 14007KT 26/20 A2996 RMK A01 T02640197  RH  067%=      5-min Rain = 0
KWE1 030629Z 14007KT 26/20 A2996 RMK A01 T02640197  RH  067%=      5-min Rain = 0
KWE1 030630Z 14007KT 26/20 A2996 RMK A01 T02630198  RH  067%=      5-min Rain = 0
KWE1 030631Z 14008KT 26/20 A2996 RMK A01 T02620197  RH  067%=      5-min Rain = 0
KWE1 030632Z 14008KT 26/20 A2996 RMK A01 T02620197  RH  068%=      5-min Rain = 0
KWE1 030633Z 14008KT 26/20 A2996 RMK A01 T02610198  RH  068%=      5-min Rain = 0
KWE1 030634Z 14007KT 26/20 A2996 RMK A01 T02610197  RH  068%=      5-min Rain = 0
KWE1 030635Z 13007KT 26/20 A2996 RMK A01 T02610198  RH  068%=      5-min Rain = 0
KWE1 030636Z 13008KT 26/20 A2996 RMK A01 T02610198  RH  068%=      5-min Rain = 0
KWE1 030637Z 13008KT 26/20 A2996 RMK A01 T02610197  RH  068%=      5-min Rain = 0
KWE1 030638Z 13007KT 26/20 A2996 RMK A01 T02610197  RH  068%=      5-min Rain = 0
KWE1 030639Z 14007KT 26/20 A2996 RMK A01 T02600197  RH  068%=      5-min Rain = 0
KWE1 030640Z 13008KT 26/20 A2996 RMK A01 T02600197  RH  068%=      5-min Rain = 0
KWE1 030641Z 14008KT 26/20 A2996 RMK A01 T02600197  RH  069%=      5-min Rain = 0
KWE1 030642Z 14008KT 26/20 A2996 RMK A01 T02600198  RH  069%=      5-min Rain = 0
KWE1 030643Z 14008KT 26/20 A2996 RMK A01 T02600198  RH  069%=      5-min Rain = 0
KWE1 030644Z 14007KT 26/20 A2996 RMK A01 T02600198  RH  069%=      5-min Rain = 0
KWE1 030645Z 14007KT 26/20 A2996 RMK A01 T02600198  RH  069%=      5-min Rain = 0
KWE1 030646Z 14009KT 26/20 A2996 RMK A01 T02600198  RH  069%=      5-min Rain = 0
KWE1 030647Z 14008KT 26/20 A2996 RMK A01 T02600198  RH  069%=      5-min Rain = 0
KWE1 030648Z 14009KT 26/20 A2996 RMK A01 T02610198  RH  068%=      5-min Rain = 0
KWE1 030649Z 14008KT 26/20 A2996 RMK A01 T02600198  RH  069%=      5-min Rain = 0
KWE1 030650Z 14008KT 26/20 A2996 RMK A01 T02610199  RH  069%=      5-min Rain = 0
KWE1 030651Z 14008KT 26/20 A2996 RMK A01 T02610199  RH  069%=      5-min Rain = 0
KWE1 030652Z 14009KT 26/20 A2996 RMK A01 T02600199  RH  069%=      5-min Rain = 0
KWE1 030653Z 14008KT 26/20 A2996 RMK A01 T02600199  RH  069%=      5-min Rain = 0
KWE1 030654Z 14008KT 26/20 A2996 RMK A01 T02600198  RH  069%=      5-min Rain = 0
KWE1 030655Z 14007KT 26/20 A2996 RMK A01 T02610199  RH  069%=      5-min Rain = 0
KWE1 030656Z 14008KT 26/20 A2996 RMK A01 T02600199  RH  069%=      5-min Rain = 0
KWE1 030657Z 14007KT 26/20 A2996 RMK A01 T02600198  RH  069%=      5-min Rain = 0
KWE1 030658Z 14007KT 26/20 A2996 RMK A01 T02590199  RH  069%=      5-min Rain = 0
KWE1 030659Z 13008KT 26/20 A2996 RMK A01 T02590198  RH  069%=      5-min Rain = 0
KWE1 030700Z 13006KT 26/20 A2996 RMK A01 T02590198  RH  069%=      5-min Rain = 0
KWE1 030701Z 13007KT 26/20 A2996 RMK A01 T02580198  RH  069%=      5-min Rain = 0
KWE1 030702Z 13007KT 26/20 A2996 RMK A01 T02580199  RH  070%=      5-min Rain = 0
KWE1 030703Z 13007KT 26/20 A2996 RMK A01 T02570199  RH  070%=      5-min Rain = 0
KWE1 030704Z 13007KT 26/20 A2996 RMK A01 T02570199  RH  070%=      5-min Rain = 0
KWE1 030705Z 13006KT 26/20 A2996 RMK A01 T02570199  RH  070%=      5-min Rain = 0
KWE1 030706Z 13006KT 26/20 A2996 RMK A01 T02570199  RH  070%=      5-min Rain = 0
KWE1 030707Z 13007KT 26/20 A2996 RMK A01 T02570199  RH  070%=      5-min Rain = 0
KWE1 030708Z 12006KT 26/20 A2996 RMK A01 T02570199  RH  070%=      5-min Rain = 0
KWE1 030709Z 12007KT 26/20 A2996 RMK A01 T02570199  RH  070%=      5-min Rain = 0
KWE1 030710Z 12006KT 26/20 A2996 RMK A01 T02570199  RH  070%=      5-min Rain = 0
KWE1 030711Z 12005KT 26/20 A2996 RMK A01 T02570199  RH  070%=      5-min Rain = 0
KWE1 030712Z 12006KT 26/20 A2996 RMK A01 T02560199  RH  071%=      5-min Rain = 0
KWE1 030713Z 12005KT 26/20 A2996 RMK A01 T02560199  RH  071%=      5-min Rain = 0
KWE1 030714Z 12005KT 26/20 A2996 RMK A01 T02560199  RH  071%=      5-min Rain = 0
KWE1 030715Z 11004KT 26/20 A2996 RMK A01 T02550199  RH  071%=      5-min Rain = 0
KWE1 030716Z 10005KT 25/20 A2996 RMK A01 T02540199  RH  071%=      5-min Rain = 0
KWE1 030717Z 10005KT 25/20 A2996 RMK A01 T02530198  RH  072%=      5-min Rain = 0
KWE1 030718Z 09005KT 25/20 A2996 RMK A01 T02510197  RH  072%=      5-min Rain = 0
KWE1 030719Z 10005KT 25/20 A2996 RMK A01 T02490197  RH  073%=      5-min Rain = 0
KWE1 030720Z 11005KT 25/20 A2996 RMK A01 T02470197  RH  074%=      5-min Rain = 0
KWE1 030721Z 11005KT 25/20 A2996 RMK A01 T02460197  RH  074%=      5-min Rain = 0
KWE1 030722Z 10005KT 25/20 A2996 RMK A01 T02460197  RH  074%=      5-min Rain = 0
KWE1 030723Z 10005KT 25/20 A2996 RMK A01 T02460197  RH  074%=      5-min Rain = 0
KWE1 030724Z 10005KT 25/20 A2996 RMK A01 T02460197  RH  074%=      5-min Rain = 0
KWE1 030725Z 10005KT 25/20 A2996 RMK A01 T02450197  RH  075%=      5-min Rain = 0
KWE1 030726Z 10006KT 25/20 A2996 RMK A01 T02450197  RH  075%=      5-min Rain = 0
KWE1 030727Z 09005KT 25/20 A2996 RMK A01 T02450197  RH  075%=      5-min Rain = 0
KWE1 030728Z 09005KT 25/20 A2996 RMK A01 T02450197  RH  075%=      5-min Rain = 0
KWE1 030729Z 10005KT 24/20 A2996 RMK A01 T02440198  RH  075%=      5-min Rain = 0
KWE1 030730Z 10005KT 24/20 A2996 RMK A01 T02440198  RH  076%=      5-min Rain = 0
KWE1 030731Z 10005KT 24/20 A2996 RMK A01 T02430198  RH  076%=      5-min Rain = 0
KWE1 030732Z 10006KT 24/20 A2996 RMK A01 T02420197  RH  076%=      5-min Rain = 0
KWE1 030733Z 10006KT 24/20 A2996 RMK A01 T02420197  RH  076%=      5-min Rain = 0
KWE1 030734Z 10006KT 24/20 A2996 RMK A01 T02430197  RH  076%=      5-min Rain = 0
KWE1 030735Z 09006KT 24/20 A2996 RMK A01 T02430198  RH  076%=      5-min Rain = 0
KWE1 030736Z 09005KT 24/20 A2996 RMK A01 T02420197  RH  076%=      5-min Rain = 0
KWE1 030737Z 10006KT 24/20 A2996 RMK A01 T02410198  RH  077%=      5-min Rain = 0
KWE1 030738Z 10006KT 24/20 A2996 RMK A01 T02410198  RH  077%=      5-min Rain = 0
KWE1 030739Z 10006KT 24/20 A2996 RMK A01 T02400198  RH  077%=      5-min Rain = 0
KWE1 030740Z 10006KT 24/20 A2996 RMK A01 T02400198  RH  077%=      5-min Rain = 0
KWE1 030741Z 10007KT 24/20 A2996 RMK A01 T02400198  RH  077%=      5-min Rain = 0
KWE1 030742Z 10007KT 24/20 A2996 RMK A01 T02390198  RH  078%=      5-min Rain = 0
KWE1 030743Z 10007KT 24/20 A2996 RMK A01 T02390198  RH  078%=      5-min Rain = 0
KWE1 030744Z 10006KT 24/20 A2996 RMK A01 T02390198  RH  078%=      5-min Rain = 0
KWE1 030745Z 10006KT 24/20 A2996 RMK A01 T02390198  RH  078%=      5-min Rain = 0
KWE1 030746Z 11006KT 24/20 A2996 RMK A01 T02380198  RH  078%=      5-min Rain = 0
KWE1 030747Z 11006KT 24/20 A2996 RMK A01 T02380198  RH  078%=      5-min Rain = 0
KWE1 030748Z 11006KT 24/20 A2996 RMK A01 T02380198  RH  078%=      5-min Rain = 0
KWE1 030749Z 11006KT 24/20 A2996 RMK A01 T02380198  RH  078%=      5-min Rain = 0
KWE1 030750Z 11006KT 24/20 A2996 RMK A01 T02380198  RH  078%=      5-min Rain = 0
KWE1 030751Z 12005KT 24/20 A2996 RMK A01 T02380198  RH  078%=      5-min Rain = 0
KWE1 030752Z 12005KT 24/20 A2995 RMK A01 T02380198  RH  079%=      5-min Rain = 0
KWE1 030753Z 12005KT 24/20 A2995 RMK A01 T02370198  RH  079%=      5-min Rain = 0
KWE1 030754Z 12004KT 24/20 A2995 RMK A01 T02370199  RH  079%=      5-min Rain = 0
KWE1 030755Z 12005KT 24/20 A2995 RMK A01 T02370198  RH  079%=      5-min Rain = 0
KWE1 030756Z 12005KT 24/20 A2995 RMK A01 T02370199  RH  079%=      5-min Rain = 0
KWE1 030757Z 13005KT 24/20 A2995 RMK A01 T02370199  RH  079%=      5-min Rain = 0
KWE1 030758Z 13005KT 24/20 A2995 RMK A01 T02370199  RH  079%=      5-min Rain = 0
KWE1 030759Z 13005KT 24/20 A2995 RMK A01 T02370198  RH  079%=      5-min Rain = 0
KWE1 030800Z 13006KT 24/20 A2995 RMK A01 T02380198  RH  079%=      5-min Rain = 0
KWE1 030801Z 13006KT 24/20 A2995 RMK A01 T02380199  RH  079%=      5-min Rain = 0
KWE1 030802Z 13006KT 24/20 A2995 RMK A01 T02380198  RH  078%=      5-min Rain = 0
KWE1 030803Z 13006KT 24/20 A2995 RMK A01 T02380198  RH  078%=      5-min Rain = 0
KWE1 030804Z 13006KT 24/20 A2995 RMK A01 T02390198  RH  078%=      5-min Rain = 0
KWE1 030805Z 13006KT 24/20 A2995 RMK A01 T02380198  RH  078%=      5-min Rain = 0
KWE1 030806Z 14008KT 24/20 A2995 RMK A01 T02390199  RH  078%=      5-min Rain = 0
KWE1 030807Z 14006KT 24/20 A2995 RMK A01 T02390198  RH  078%=      5-min Rain = 0
KWE1 030808Z 13006KT 24/20 A2995 RMK A01 T02390198  RH  078%=      5-min Rain = 0
KWE1 030809Z 14006KT 24/20 A2995 RMK A01 T02390198  RH  078%=      5-min Rain = 0
KWE1 030810Z 14006KT 24/20 A2995 RMK A01 T02390199  RH  078%=      5-min Rain = 0
KWE1 030811Z 13005KT 24/20 A2995 RMK A01 T02400199  RH  078%=      5-min Rain = 0
KWE1 030812Z 14005KT 24/20 A2995 RMK A01 T02390198  RH  078%=      5-min Rain = 0
KWE1 030813Z 14006KT 24/20 A2995 RMK A01 T02390198  RH  078%=      5-min Rain = 0
KWE1 030814Z 14006KT 24/20 A2995 RMK A01 T02390198  RH  078%=      5-min Rain = 0
KWE1 030815Z 14006KT 24/20 A2995 RMK A01 T02390198  RH  078%=      5-min Rain = 0
KWE1 030816Z 14007KT 24/20 A2995 RMK A01 T02390198  RH  078%=      5-min Rain = 0
KWE1 030817Z 14007KT 24/20 A2995 RMK A01 T02390199  RH  078%=      5-min Rain = 0
KWE1 030818Z 14006KT 24/20 A2995 RMK A01 T02390198  RH  078%=      5-min Rain = 0
KWE1 030819Z 13006KT 24/20 A2995 RMK A01 T02390198  RH  078%=      5-min Rain = 0
KWE1 030820Z 14007KT 24/20 A2995 RMK A01 T02390198  RH  078%=      5-min Rain = 0
KWE1 030821Z 14006KT 24/20 A2995 RMK A01 T02390198  RH  078%=      5-min Rain = 0
KWE1 030822Z 14006KT 24/20 A2995 RMK A01 T02390198  RH  078%=      5-min Rain = 0
KWE1 030823Z 14006KT 24/20 A2995 RMK A01 T02390198  RH  078%=      5-min Rain = 0
KWE1 030824Z 14006KT 24/20 A2995 RMK A01 T02400199  RH  078%=      5-min Rain = 0
KWE1 030825Z 14006KT 24/20 A2995 RMK A01 T02390198  RH  078%=      5-min Rain = 0
KWE1 030826Z 13007KT 24/20 A2995 RMK A01 T02390198  RH  078%=      5-min Rain = 0
KWE1 030827Z 13007KT 24/20 A2995 RMK A01 T02390199  RH  078%=      5-min Rain = 0
KWE1 030828Z 13006KT 24/20 A2995 RMK A01 T02390199  RH  078%=      5-min Rain = 0
KWE1 030829Z 14007KT 24/20 A2995 RMK A01 T02390199  RH  078%=      5-min Rain = 0
KWE1 030830Z 14007KT 24/20 A2995 RMK A01 T02390199  RH  078%=      5-min Rain = 0
KWE1 030831Z 14007KT 24/20 A2995 RMK A01 T02390199  RH  078%=      5-min Rain = 0
KWE1 030832Z 14007KT 24/20 A2995 RMK A01 T02390199  RH  078%=      5-min Rain = 0
KWE1 030833Z 13006KT 24/20 A2995 RMK A01 T02390198  RH  078%=      5-min Rain = 0
KWE1 030834Z 14006KT 24/20 A2995 RMK A01 T02390199  RH  078%=      5-min Rain = 0
KWE1 030835Z 13007KT 24/20 A2995 RMK A01 T02390198  RH  078%=      5-min Rain = 0
KWE1 030836Z 13006KT 24/20 A2995 RMK A01 T02390198  RH  078%=      5-min Rain = 0
KWE1 030837Z 13007KT 24/20 A2995 RMK A01 T02390199  RH  078%=      5-min Rain = 0
KWE1 030838Z 13007KT 24/20 A2995 RMK A01 T02390198  RH  078%=      5-min Rain = 0
KWE1 030839Z 12007KT 24/20 A2995 RMK A01 T02390198  RH  078%=      5-min Rain = 0
KWE1 030840Z 13007KT 24/20 A2995 RMK A01 T02390198  RH  078%=      5-min Rain = 0
KWE1 030841Z 12007KT 24/20 A2995 RMK A01 T02390198  RH  078%=      5-min Rain = 0
KWE1 030842Z 12006KT 24/20 A2995 RMK A01 T02390198  RH  078%=      5-min Rain = 0
KWE1 030843Z 12007KT 24/20 A2996 RMK A01 T02390198  RH  078%=      5-min Rain = 0
KWE1 030844Z 12007KT 24/20 A2996 RMK A01 T02390199  RH  078%=      5-min Rain = 0
KWE1 030845Z 12007KT 24/20 A2996 RMK A01 T02390199  RH  078%=      5-min Rain = 0
KWE1 030846Z 12007KT 24/20 A2996 RMK A01 T02390199  RH  078%=      5-min Rain = 0
KWE1 030847Z 12006KT 24/20 A2996 RMK A01 T02390199  RH  078%=      5-min Rain = 0
KWE1 030848Z 12006KT 24/20 A2996 RMK A01 T02400199  RH  078%=      5-min Rain = 0
KWE1 030849Z 12006KT 24/20 A2996 RMK A01 T02400199  RH  078%=      5-min Rain = 0
KWE1 030850Z 12006KT 24/20 A2996 RMK A01 T02400199  RH  078%=      5-min Rain = 0
KWE1 030851Z 12006KT 24/20 A2996 RMK A01 T02400200  RH  078%=      5-min Rain = 0
KWE1 030852Z 12006KT 24/20 A2996 RMK A01 T02400199  RH  078%=      5-min Rain = 0
KWE1 030853Z 12007KT 24/20 A2996 RMK A01 T02400199  RH  078%=      5-min Rain = 0
KWE1 030854Z 12007KT 24/20 A2996 RMK A01 T02400199  RH  078%=      5-min Rain = 0
KWE1 030855Z 12006KT 24/20 A2996 RMK A01 T02400199  RH  078%=      5-min Rain = 0
KWE1 030856Z 12007KT 24/20 A2996 RMK A01 T02400199  RH  078%=      5-min Rain = 0
KWE1 030857Z 12007KT 24/20 A2996 RMK A01 T02400199  RH  078%=      5-min Rain = 0
KWE1 030858Z 12007KT 24/20 A2996 RMK A01 T02400199  RH  078%=      5-min Rain = 0
KWE1 030859Z 12007KT 24/20 A2996 RMK A01 T02400199  RH  078%=      5-min Rain = 0
KWE1 030900Z 12007KT 24/20 A2996 RMK A01 T02400200  RH  078%=      5-min Rain = 0
KWE1 030901Z 12007KT 24/20 A2996 RMK A01 T02400199  RH  078%=      5-min Rain = 0
KWE1 030902Z 12007KT 24/20 A2996 RMK A01 T02410199  RH  078%=      5-min Rain = 0
KWE1 030903Z 12007KT 24/20 A2996 RMK A01 T02410199  RH  078%=      5-min Rain = 0
KWE1 030904Z 12007KT 24/20 A2996 RMK A01 T02410200  RH  078%=      5-min Rain = 0
KWE1 030905Z 12006KT 24/20 A2996 RMK A01 T02410200  RH  078%=      5-min Rain = 0
KWE1 030906Z 12007KT 24/20 A2996 RMK A01 T02410200  RH  078%=      5-min Rain = 0
KWE1 030907Z 12008KT 24/20 A2996 RMK A01 T02410199  RH  078%=      5-min Rain = 0
KWE1 030908Z 12007KT 24/20 A2996 RMK A01 T02410199  RH  078%=      5-min Rain = 0
KWE1 030909Z 12007KT 24/20 A2996 RMK A01 T02410199  RH  078%=      5-min Rain = 0
KWE1 030910Z 12006KT 24/20 A2996 RMK A01 T02410200  RH  078%=      5-min Rain = 0
KWE1 030911Z 12006KT 24/20 A2996 RMK A01 T02410199  RH  078%=      5-min Rain = 0
KWE1 030912Z 12007KT 24/20 A2996 RMK A01 T02400199  RH  078%=      5-min Rain = 0
KWE1 030913Z 12007KT 24/20 A2997 RMK A01 T02400199  RH  078%=      5-min Rain = 0
KWE1 030914Z 13006KT 24/20 A2997 RMK A01 T02410200  RH  078%=      5-min Rain = 0
KWE1 030915Z 13006KT 24/20 A2997 RMK A01 T02400199  RH  078%=      5-min Rain = 0
KWE1 030916Z 12007KT 24/20 A2997 RMK A01 T02400199  RH  078%=      5-min Rain = 0
KWE1 030917Z 12006KT 24/20 A2997 RMK A01 T02400199  RH  078%=      5-min Rain = 0
KWE1 030918Z 12006KT 24/20 A2997 RMK A01 T02400199  RH  078%=      5-min Rain = 0
KWE1 030919Z 13007KT 24/20 A2997 RMK A01 T02400199  RH  078%=      5-min Rain = 0
KWE1 030920Z 13006KT 24/20 A2997 RMK A01 T02400199  RH  078%=      5-min Rain = 0
KWE1 030921Z 13007KT 24/20 A2997 RMK A01 T02400199  RH  078%=      5-min Rain = 0
KWE1 030922Z 13007KT 24/20 A2997 RMK A01 T02400199  RH  078%=      5-min Rain = 0
KWE1 030923Z 13007KT 24/20 A2997 RMK A01 T02400199  RH  078%=      5-min Rain = 0
KWE1 030924Z 13007KT 24/20 A2997 RMK A01 T02400199  RH  078%=      5-min Rain = 0
KWE1 030925Z 14006KT 24/20 A2997 RMK A01 T02400199  RH  078%=      5-min Rain = 0
KWE1 030926Z 13006KT 24/20 A2997 RMK A01 T02400199  RH  078%=      5-min Rain = 0
KWE1 030927Z 13006KT 24/20 A2997 RMK A01 T02400199  RH  078%=      5-min Rain = 0
KWE1 030928Z 13006KT 24/20 A2997 RMK A01 T02400198  RH  078%=      5-min Rain = 0
KWE1 030929Z 13006KT 24/20 A2997 RMK A01 T02400198  RH  078%=      5-min Rain = 0
KWE1 030930Z 13006KT 24/20 A2997 RMK A01 T02400199  RH  078%=      5-min Rain = 0
KWE1 030931Z 14006KT 24/20 A2997 RMK A01 T02400199  RH  078%=      5-min Rain = 0
KWE1 030932Z 13007KT 24/20 A2998 RMK A01 T02400199  RH  078%=      5-min Rain = 0
KWE1 030933Z 13007KT 24/20 A2998 RMK A01 T02400199  RH  078%=      5-min Rain = 0
KWE1 030934Z 13007KT 24/20 A2998 RMK A01 T02400199  RH  078%=      5-min Rain = 0
KWE1 030935Z 13006KT 24/20 A2998 RMK A01 T02400199  RH  078%=      5-min Rain = 0
KWE1 030936Z 13007KT 24/20 A2998 RMK A01 T02400199  RH  078%=      5-min Rain = 0
KWE1 030937Z 13008KT 24/20 A2998 RMK A01 T02400199  RH  078%=      5-min Rain = 0
KWE1 030938Z 13008KT 24/20 A2998 RMK A01 T02400199  RH  077%=      5-min Rain = 0
KWE1 030939Z 13007KT 24/20 A2998 RMK A01 T02410199  RH  077%=      5-min Rain = 0
KWE1 030940Z 13007KT 24/20 A2998 RMK A01 T02410199  RH  077%=      5-min Rain = 0
KWE1 030941Z 13007KT 24/20 A2998 RMK A01 T02410199  RH  077%=      5-min Rain = 0
KWE1 030942Z 13007KT 24/20 A2998 RMK A01 T02410199  RH  077%=      5-min Rain = 0
KWE1 030943Z 13007KT 24/20 A2998 RMK A01 T02400199  RH  078%=      5-min Rain = 0
KWE1 030944Z 14007KT 24/20 A2998 RMK A01 T02390198  RH  078%=      5-min Rain = 0
KWE1 030945Z 13007KT 24/20 A2998 RMK A01 T02390199  RH  078%=      5-min Rain = 0
KWE1 030946Z 14007KT 24/20 A2998 RMK A01 T02400199  RH  078%=      5-min Rain = 0
KWE1 030947Z 14007KT 24/20 A2998 RMK A01 T02390199  RH  078%=      5-min Rain = 0
KWE1 030948Z 15006KT 24/20 A2998 RMK A01 T02390198  RH  078%=      5-min Rain = 0
KWE1 030949Z 14007KT 24/20 A2998 RMK A01 T02390198  RH  078%=      5-min Rain = 0
KWE1 030950Z 14007KT 24/20 A2998 RMK A01 T02380198  RH  078%=      5-min Rain = 0
KWE1 030951Z 15008KT 24/20 A2998 RMK A01 T02390198  RH  078%=      5-min Rain = 0
KWE1 030952Z 15007KT 24/20 A2998 RMK A01 T02390198  RH  078%=      5-min Rain = 0
KWE1 030953Z 15007KT 24/20 A2998 RMK A01 T02390198  RH  078%=      5-min Rain = 0
KWE1 030954Z 14007KT 24/20 A2998 RMK A01 T02390198  RH  078%=      5-min Rain = 0
KWE1 030955Z 14007KT 24/20 A2998 RMK A01 T02390198  RH  078%=      5-min Rain = 0
KWE1 030956Z 15007KT 24/20 A2998 RMK A01 T02380197  RH  078%=      5-min Rain = 0
KWE1 030957Z 15007KT 24/20 A2998 RMK A01 T02390198  RH  078%=      5-min Rain = 0
KWE1 030958Z 14006KT 24/20 A2998 RMK A01 T02380198  RH  078%=      5-min Rain = 0
KWE1 030959Z 14007KT 24/20 A2998 RMK A01 T02380198  RH  078%=      5-min Rain = 0
KWE1 031000Z 14006KT 24/20 A2998 RMK A01 T02380198  RH  078%=      5-min Rain = 0
KWE1 031001Z 14007KT 24/20 A2998 RMK A01 T02380198  RH  078%=      5-min Rain = 0
KWE1 031002Z 14007KT 24/20 A2998 RMK A01 T02380198  RH  078%=      5-min Rain = 0
KWE1 031003Z 13007KT 24/20 A2998 RMK A01 T02380197  RH  078%=      5-min Rain = 0
KWE1 031004Z 13007KT 24/20 A2998 RMK A01 T02380198  RH  078%=      5-min Rain = 0
KWE1 031005Z 13007KT 24/20 A2998 RMK A01 T02380198  RH  078%=      5-min Rain = 0
KWE1 031006Z 13006KT 24/20 A2998 RMK A01 T02380198  RH  078%=      5-min Rain = 0
KWE1 031007Z 13005KT 24/20 A2998 RMK A01 T02380197  RH  078%=      5-min Rain = 0
KWE1 031008Z 13006KT 24/20 A2998 RMK A01 T02380198  RH  078%=      5-min Rain = 0
KWE1 031009Z 13006KT 24/20 A2998 RMK A01 T02380198  RH  078%=      5-min Rain = 0
KWE1 031010Z 13006KT 24/20 A2998 RMK A01 T02370198  RH  078%=      5-min Rain = 0
KWE1 031011Z 13007KT 24/20 A2998 RMK A01 T02370198  RH  078%=      5-min Rain = 0
KWE1 031012Z 13006KT 24/20 A2998 RMK A01 T02370197  RH  078%=      5-min Rain = 0
KWE1 031013Z 13007KT 24/20 A2998 RMK A01 T02370198  RH  078%=      5-min Rain = 0
KWE1 031014Z 13007KT 24/20 A2998 RMK A01 T02370198  RH  078%=      5-min Rain = 0
KWE1 031015Z 13007KT 24/20 A2998 RMK A01 T02370197  RH  078%=      5-min Rain = 0
KWE1 031016Z 13007KT 24/20 A2998 RMK A01 T02370197  RH  078%=      5-min Rain = 0
KWE1 031017Z 13007KT 24/20 A2998 RMK A01 T02380198  RH  078%=      5-min Rain = 0
KWE1 031018Z 13006KT 24/20 A2998 RMK A01 T02380197  RH  078%=      5-min Rain = 0
KWE1 031019Z 13005KT 24/20 A2998 RMK A01 T02380197  RH  078%=      5-min Rain = 0
KWE1 031020Z 13006KT 24/20 A2998 RMK A01 T02380197  RH  078%=      5-min Rain = 0
KWE1 031021Z 13006KT 24/20 A2998 RMK A01 T02380198  RH  078%=      5-min Rain = 0
KWE1 031022Z 13006KT 24/20 A2998 RMK A01 T02370197  RH  078%=      5-min Rain = 0
KWE1 031023Z 13006KT 24/20 A2998 RMK A01 T02370197  RH  078%=      5-min Rain = 0
KWE1 031024Z 14006KT 24/20 A2998 RMK A01 T02380198  RH  078%=      5-min Rain = 0
KWE1 031025Z 13006KT 24/20 A2998 RMK A01 T02370197  RH  078%=      5-min Rain = 0
KWE1 031026Z 14006KT 24/20 A2998 RMK A01 T02370197  RH  079%=      5-min Rain = 0
KWE1 031027Z 14006KT 24/20 A2998 RMK A01 T02360197  RH  079%=      5-min Rain = 0
KWE1 031028Z 14006KT 24/20 A2998 RMK A01 T02360197  RH  079%=      5-min Rain = 0
KWE1 031029Z 14007KT 24/20 A2998 RMK A01 T02360197  RH  079%=      5-min Rain = 0
KWE1 031030Z 14007KT 24/20 A2998 RMK A01 T02360197  RH  079%=      5-min Rain = 0
KWE1 031031Z 14006KT 24/20 A2998 RMK A01 T02360197  RH  079%=      5-min Rain = 0
KWE1 031032Z 14007KT 24/20 A2998 RMK A01 T02360197  RH  078%=      5-min Rain = 0
KWE1 031033Z 14007KT 24/20 A2998 RMK A01 T02360196  RH  078%=      5-min Rain = 0
KWE1 031034Z 14007KT 24/20 A2998 RMK A01 T02370196  RH  078%=      5-min Rain = 0
KWE1 031035Z 14007KT 24/20 A2998 RMK A01 T02360196  RH  078%=      5-min Rain = 0
KWE1 031036Z 14007KT 24/20 A2998 RMK A01 T02370196  RH  078%=      5-min Rain = 0
KWE1 031037Z 14007KT 24/20 A2998 RMK A01 T02370196  RH  078%=      5-min Rain = 0
KWE1 031038Z 14007KT 24/20 A2998 RMK A01 T02380197  RH  078%=      5-min Rain = 0
KWE1 031039Z 14007KT 24/20 A2998 RMK A01 T02380196  RH  078%=      5-min Rain = 0
KWE1 031040Z 14007KT 24/20 A2998 RMK A01 T02380197  RH  078%=      5-min Rain = 0
KWE1 031041Z 14007KT 24/20 A2998 RMK A01 T02380196  RH  077%=      5-min Rain = 0
KWE1 031042Z 14007KT 24/20 A2998 RMK A01 T02380196  RH  077%=      5-min Rain = 0
KWE1 031043Z 14007KT 24/20 A2998 RMK A01 T02380196  RH  077%=      5-min Rain = 0
KWE1 031044Z 14006KT 24/20 A2998 RMK A01 T02380196  RH  077%=      5-min Rain = 0
KWE1 031045Z 14007KT 24/20 A2998 RMK A01 T02380196  RH  077%=      5-min Rain = 0
KWE1 031046Z 14006KT 24/20 A2998 RMK A01 T02380196  RH  077%=      5-min Rain = 0
KWE1 031047Z 14006KT 24/20 A2998 RMK A01 T02380196  RH  077%=      5-min Rain = 0
KWE1 031048Z 14006KT 24/20 A2998 RMK A01 T02380196  RH  077%=      5-min Rain = 0
KWE1 031049Z 14007KT 24/20 A2998 RMK A01 T02370196  RH  077%=      5-min Rain = 0
KWE1 031050Z 14007KT 24/20 A2998 RMK A01 T02370196  RH  077%=      5-min Rain = 0
KWE1 031051Z 14006KT 24/20 A2998 RMK A01 T02380196  RH  077%=      5-min Rain = 0
KWE1 031052Z 14006KT 24/20 A2998 RMK A01 T02380196  RH  077%=      5-min Rain = 0
KWE1 031053Z 14005KT 24/20 A2998 RMK A01 T02380196  RH  078%=      5-min Rain = 0
KWE1 031054Z 15006KT 24/20 A2998 RMK A01 T02370196  RH  078%=      5-min Rain = 0
KWE1 031055Z 14006KT 24/20 A2998 RMK A01 T02370196  RH  078%=      5-min Rain = 0
KWE1 031056Z 14006KT 24/20 A2998 RMK A01 T02370196  RH  078%=      5-min Rain = 0
KWE1 031057Z 14006KT 24/20 A2998 RMK A01 T02370196  RH  078%=      5-min Rain = 0
KWE1 031058Z 15006KT 24/20 A2998 RMK A01 T02370196  RH  078%=      5-min Rain = 0
KWE1 031059Z 15006KT 24/20 A2998 RMK A01 T02370196  RH  078%=      5-min Rain = 0
KWE1 031100Z 15006KT 24/20 A2999 RMK A01 T02370196  RH  078%=      5-min Rain = 0
KWE1 031101Z 15006KT 24/20 A2999 RMK A01 T02370195  RH  077%=      5-min Rain = 0
KWE1 031102Z 15005KT 24/20 A2999 RMK A01 T02370195  RH  077%=      5-min Rain = 0
KWE1 031103Z 14005KT 24/20 A2999 RMK A01 T02370195  RH  077%=      5-min Rain = 0
KWE1 031104Z 14006KT 24/20 A2999 RMK A01 T02370196  RH  077%=      5-min Rain = 0
KWE1 031105Z 15006KT 24/20 A2999 RMK A01 T02370195  RH  077%=      5-min Rain = 0
KWE1 031106Z 15006KT 24/20 A2999 RMK A01 T02370195  RH  077%=      5-min Rain = 0
KWE1 031107Z 15007KT 24/20 A2999 RMK A01 T02370195  RH  077%=      5-min Rain = 0
KWE1 031108Z 15007KT 24/20 A2999 RMK A01 T02370195  RH  077%=      5-min Rain = 0
KWE1 031109Z 14006KT 24/20 A2999 RMK A01 T02370195  RH  077%=      5-min Rain = 0
KWE1 031110Z 14006KT 24/20 A2999 RMK A01 T02370195  RH  077%=      5-min Rain = 0
KWE1 031111Z 14006KT 24/20 A2999 RMK A01 T02370195  RH  077%=      5-min Rain = 0
KWE1 031112Z 14006KT 24/20 A2999 RMK A01 T02370195  RH  077%=      5-min Rain = 0
KWE1 031113Z 14006KT 24/20 A2999 RMK A01 T02370195  RH  077%=      5-min Rain = 0
KWE1 031114Z 14006KT 24/19 A2999 RMK A01 T02370194  RH  077%=      5-min Rain = 0
KWE1 031115Z 14006KT 24/19 A2999 RMK A01 T02370194  RH  077%=      5-min Rain = 0
KWE1 031116Z 14006KT 24/19 A2999 RMK A01 T02370194  RH  077%=      5-min Rain = 0
KWE1 031117Z 14006KT 24/19 A2999 RMK A01 T02370194  RH  077%=      5-min Rain = 0
KWE1 031118Z 14006KT 24/19 A2999 RMK A01 T02370194  RH  077%=      5-min Rain = 0
KWE1 031119Z 14006KT 24/19 A2999 RMK A01 T02370194  RH  077%=      5-min Rain = 0
KWE1 031120Z 14005KT 24/19 A2999 RMK A01 T02370193  RH  076%=      5-min Rain = 0
KWE1 031121Z 14006KT 24/19 A2999 RMK A01 T02370193  RH  076%=      5-min Rain = 0
KWE1 031122Z 14006KT 24/19 A2999 RMK A01 T02370193  RH  076%=      5-min Rain = 0
KWE1 031123Z 14006KT 24/19 A2999 RMK A01 T02370193  RH  076%=      5-min Rain = 0
KWE1 031124Z 15006KT 24/19 A2999 RMK A01 T02370193  RH  076%=      5-min Rain = 0
KWE1 031125Z 14006KT 24/19 A2999 RMK A01 T02370193  RH  076%=      5-min Rain = 0
KWE1 031126Z 15006KT 24/19 A2999 RMK A01 T02370193  RH  076%=      5-min Rain = 0
KWE1 031127Z 15006KT 24/19 A2999 RMK A01 T02370193  RH  076%=      5-min Rain = 0
KWE1 031128Z 15006KT 24/19 A2999 RMK A01 T02360193  RH  076%=      5-min Rain = 0
KWE1 031129Z 15006KT 24/19 A2999 RMK A01 T02370193  RH  076%=      5-min Rain = 0
KWE1 031130Z 15005KT 24/19 A2999 RMK A01 T02370193  RH  077%=      5-min Rain = 0
KWE1 031131Z 16005KT 24/19 A2999 RMK A01 T02360193  RH  077%=      5-min Rain = 0
KWE1 031132Z 15005KT 24/19 A2999 RMK A01 T02360192  RH  076%=      5-min Rain = 0
KWE1 031133Z 15005KT 24/19 A2999 RMK A01 T02360192  RH  076%=      5-min Rain = 0
KWE1 031134Z 15006KT 24/19 A2999 RMK A01 T02360192  RH  076%=      5-min Rain = 0
KWE1 031135Z 15006KT 24/19 A2999 RMK A01 T02360191  RH  076%=      5-min Rain = 0
KWE1 031136Z 15007KT 24/19 A2999 RMK A01 T02360191  RH  076%=      5-min Rain = 0
KWE1 031137Z 16006KT 24/19 A2999 RMK A01 T02370192  RH  076%=      5-min Rain = 0
KWE1 031138Z 16006KT 24/19 A2999 RMK A01 T02370192  RH  076%=      5-min Rain = 0
KWE1 031139Z 15007KT 24/19 A2999 RMK A01 T02370192  RH  075%=      5-min Rain = 0
KWE1 031140Z 16007KT 24/19 A30 RMK A01 T02380191  RH  075%=      5-min Rain = 0
KWE1 031141Z 16006KT 24/19 A30 RMK A01 T02380191  RH  075%=      5-min Rain = 0
KWE1 031142Z 16006KT 24/19 A30 RMK A01 T02380191  RH  075%=      5-min Rain = 0
KWE1 031143Z 16006KT 24/19 A30 RMK A01 T02380191  RH  075%=      5-min Rain = 0
KWE1 031144Z 16006KT 24/19 A30 RMK A01 T02390191  RH  075%=      5-min Rain = 0
KWE1 031145Z 16006KT 24/19 A30 RMK A01 T02390191  RH  074%=      5-min Rain = 0
KWE1 031146Z 16006KT 24/19 A30 RMK A01 T02390191  RH  074%=      5-min Rain = 0
KWE1 031147Z 16006KT 24/19 A30 RMK A01 T02390191  RH  074%=      5-min Rain = 0
KWE1 031148Z 16006KT 24/19 A30 RMK A01 T02390191  RH  074%=      5-min Rain = 0
KWE1 031149Z 17005KT 24/19 A30 RMK A01 T02390191  RH  074%=      5-min Rain = 0
KWE1 031150Z 16007KT 24/19 A30 RMK A01 T02390191  RH  074%=      5-min Rain = 0
KWE1 031151Z 16006KT 24/19 A30 RMK A01 T02390190  RH  074%=      5-min Rain = 0
KWE1 031152Z 16006KT 24/19 A30 RMK A01 T02390190  RH  074%=      5-min Rain = 0
KWE1 031153Z 16007KT 24/19 A30 RMK A01 T02390190  RH  074%=      5-min Rain = 0
KWE1 031154Z 16007KT 24/19 A30 RMK A01 T02400191  RH  074%=      5-min Rain = 0
KWE1 031155Z 16006KT 24/19 A30 RMK A01 T02400191  RH  074%=      5-min Rain = 0
KWE1 031156Z 16006KT 24/19 A30 RMK A01 T02400191  RH  074%=      5-min Rain = 0
KWE1 031157Z 16006KT 24/19 A30 RMK A01 T02400190  RH  074%=      5-min Rain = 0
KWE1 031158Z 15007KT 24/19 A30 RMK A01 T02400191  RH  074%=      5-min Rain = 0
KWE1 031159Z 16007KT 24/19 A30 RMK A01 T02400191  RH  074%=      5-min Rain = 0
KWE1 031200Z 16007KT 24/19 A30 RMK A01 T02400191  RH  074%=      5-min Rain = 0
KWE1 031201Z 16006KT 24/19 A30 RMK A01 T02410191  RH  074%=      5-min Rain = 0
KWE1 031202Z 16007KT 24/19 A30 RMK A01 T02410191  RH  073%=      5-min Rain = 0
KWE1 031203Z 16005KT 24/19 A30 RMK A01 T02410190  RH  073%=      5-min Rain = 0
KWE1 031204Z 16006KT 24/19 A30 RMK A01 T02420192  RH  074%=      5-min Rain = 0
KWE1 031205Z 16006KT 24/19 A30 RMK A01 T02420192  RH  074%=      5-min Rain = 0
KWE1 031206Z 16006KT 24/19 A30 RMK A01 T02420191  RH  073%=      5-min Rain = 0
KWE1 031207Z 16006KT 24/19 A30 RMK A01 T02420191  RH  073%=      5-min Rain = 0
KWE1 031208Z 16006KT 24/19 A30 RMK A01 T02420191  RH  073%=      5-min Rain = 0
KWE1 031209Z 16006KT 24/19 A30 RMK A01 T02420191  RH  073%=      5-min Rain = 0
KWE1 031210Z 16006KT 24/19 A30 RMK A01 T02420191  RH  073%=      5-min Rain = 0
KWE1 031211Z 16006KT 24/19 A30 RMK A01 T02430191  RH  073%=      5-min Rain = 0
KWE1 031212Z 16007KT 24/19 A30 RMK A01 T02420191  RH  073%=      5-min Rain = 0
KWE1 031213Z 16007KT 24/19 A30 RMK A01 T02430191  RH  073%=      5-min Rain = 0
KWE1 031214Z 17006KT 24/19 A30 RMK A01 T02430191  RH  073%=      5-min Rain = 0
KWE1 031215Z 17006KT 24/19 A30 RMK A01 T02440191  RH  073%=      5-min Rain = 0
KWE1 031216Z 16006KT 24/19 A30 RMK A01 T02440191  RH  072%=      5-min Rain = 0
KWE1 031217Z 17006KT 24/19 A30 RMK A01 T02440192  RH  072%=      5-min Rain = 0
KWE1 031218Z 17006KT 24/19 A30 RMK A01 T02440191  RH  072%=      5-min Rain = 0
KWE1 031219Z 17005KT 25/19 A30 RMK A01 T02450191  RH  072%=      5-min Rain = 0
KWE1 031220Z 17006KT 25/19 A30 RMK A01 T02450191  RH  072%=      5-min Rain = 0
KWE1 031221Z 17005KT 25/19 A30 RMK A01 T02460191  RH  071%=      5-min Rain = 0
KWE1 031222Z 17005KT 25/19 A3001 RMK A01 T02470192  RH  071%=      5-min Rain = 0
KWE1 031223Z 17005KT 25/19 A3001 RMK A01 T02470191  RH  071%=      5-min Rain = 0
KWE1 031224Z 17005KT 25/19 A3001 RMK A01 T02480190  RH  070%=      5-min Rain = 0
KWE1 031225Z 17005KT 25/19 A3001 RMK A01 T02490190  RH  070%=      5-min Rain = 0
KWE1 031226Z 17005KT 25/19 A3001 RMK A01 T02490190  RH  070%=      5-min Rain = 0
KWE1 031227Z 17005KT 25/19 A3001 RMK A01 T02500191  RH  070%=      5-min Rain = 0
KWE1 031228Z 17005KT 25/19 A3001 RMK A01 T02500191  RH  070%=      5-min Rain = 0
KWE1 031229Z 17004KT 25/19 A30 RMK A01 T02510192  RH  070%=      5-min Rain = 0
KWE1 031230Z 18005KT 25/19 A30 RMK A01 T02510191  RH  069%=      5-min Rain = 0
KWE1 031231Z 17006KT 25/19 A30 RMK A01 T02510190  RH  069%=      5-min Rain = 0
KWE1 031232Z 17006KT 25/19 A30 RMK A01 T02520190  RH  068%=      5-min Rain = 0
KWE1 031233Z 17005KT 25/19 A30 RMK A01 T02520191  RH  069%=      5-min Rain = 0
KWE1 031234Z 17005KT 25/19 A30 RMK A01 T02530190  RH  068%=      5-min Rain = 0
KWE1 031235Z 17005KT 25/19 A30 RMK A01 T02530190  RH  068%=      5-min Rain = 0
KWE1 031236Z 17006KT 25/19 A30 RMK A01 T02540190  RH  068%=      5-min Rain = 0
KWE1 031237Z 17006KT 25/19 A30 RMK A01 T02540191  RH  068%=      5-min Rain = 0
KWE1 031238Z 17005KT 25/19 A30 RMK A01 T02540191  RH  068%=      5-min Rain = 0
KWE1 031239Z 17005KT 26/19 A3001 RMK A01 T02550190  RH  068%=      5-min Rain = 0
KWE1 031240Z 17005KT 26/19 A3001 RMK A01 T02550191  RH  068%=      5-min Rain = 0
KWE1 031241Z 17005KT 26/19 A3001 RMK A01 T02560191  RH  067%=      5-min Rain = 0
KWE1 031242Z 17005KT 26/19 A3001 RMK A01 T02560191  RH  067%=      5-min Rain = 0
KWE1 031243Z 17005KT 26/19 A3001 RMK A01 T02570191  RH  067%=      5-min Rain = 0
KWE1 031244Z 17004KT 26/19 A3001 RMK A01 T02570191  RH  067%=      5-min Rain = 0
KWE1 031245Z 17005KT 26/19 A3001 RMK A01 T02580192  RH  067%=      5-min Rain = 0
KWE1 031246Z 17006KT 26/19 A3001 RMK A01 T02590191  RH  066%=      5-min Rain = 0
KWE1 031247Z 17005KT 26/19 A3001 RMK A01 T02600190  RH  066%=      5-min Rain = 0
KWE1 031248Z 17005KT 26/19 A3001 RMK A01 T02600191  RH  066%=      5-min Rain = 0
KWE1 031249Z 18005KT 26/19 A3001 RMK A01 T02600192  RH  066%=      5-min Rain = 0
KWE1 031250Z 17005KT 26/19 A3001 RMK A01 T02610191  RH  065%=      5-min Rain = 0
KWE1 031251Z 17005KT 26/19 A3001 RMK A01 T02610191  RH  065%=      5-min Rain = 0
KWE1 031252Z 17006KT 26/19 A3001 RMK A01 T02620190  RH  065%=      5-min Rain = 0
KWE1 031253Z 18006KT 26/19 A3001 RMK A01 T02620190  RH  064%=      5-min Rain = 0
KWE1 031254Z 18005KT 26/19 A3001 RMK A01 T02620191  RH  065%=      5-min Rain = 0
KWE1 031255Z 18005KT 26/19 A3001 RMK A01 T02620191  RH  065%=      5-min Rain = 0
KWE1 031256Z 17005KT 26/19 A3001 RMK A01 T02620191  RH  065%=      5-min Rain = 0
KWE1 031257Z 18005KT 26/19 A3001 RMK A01 T02630191  RH  065%=      5-min Rain = 0
KWE1 031258Z 17005KT 26/19 A3001 RMK A01 T02630191  RH  065%=      5-min Rain = 0
KWE1 031259Z 18005KT 26/19 A3001 RMK A01 T02630191  RH  065%=      5-min Rain = 0
KWE1 031300Z 18005KT 26/19 A3001 RMK A01 T02630191  RH  065%=      5-min Rain = 0
KWE1 031301Z 18005KT 26/19 A3001 RMK A01 T02630191  RH  064%=      5-min Rain = 0
KWE1 031302Z 18006KT 26/19 A3001 RMK A01 T02640191  RH  064%=      5-min Rain = 0
KWE1 031303Z 18006KT 27/19 A3001 RMK A01 T02650189  RH  063%=      5-min Rain = 0
KWE1 031304Z 18006KT 27/19 A3001 RMK A01 T02660189  RH  063%=      5-min Rain = 0
KWE1 031305Z 19006KT 27/19 A3001 RMK A01 T02670189  RH  062%=      5-min Rain = 0
KWE1 031306Z 18006KT 27/19 A3001 RMK A01 T02670189  RH  062%=      5-min Rain = 0
KWE1 031307Z 18006KT 27/19 A3001 RMK A01 T02680189  RH  062%=      5-min Rain = 0
KWE1 031308Z 18006KT 27/19 A3001 RMK A01 T02690187  RH  061%=      5-min Rain = 0
KWE1 031309Z 18006KT 27/19 A3001 RMK A01 T02690189  RH  062%=      5-min Rain = 0
KWE1 031310Z 18007KT 27/19 A3001 RMK A01 T02690188  RH  061%=      5-min Rain = 0
KWE1 031311Z 18007KT 27/19 A3001 RMK A01 T02690187  RH  061%=      5-min Rain = 0
KWE1 031312Z 19007KT 27/19 A3002 RMK A01 T02700186  RH  060%=      5-min Rain = 0
KWE1 031313Z 18007KT 27/19 A3002 RMK A01 T02700187  RH  061%=      5-min Rain = 0
KWE1 031314Z 18007KT 27/19 A3002 RMK A01 T02700186  RH  060%=      5-min Rain = 0
KWE1 031315Z 18007KT 27/19 A3002 RMK A01 T02700187  RH  060%=      5-min Rain = 0
KWE1 031316Z 17005KT 27/19 A3002 RMK A01 T02700188  RH  061%=      5-min Rain = 0
KWE1 031317Z 18005KT 27/19 A3002 RMK A01 T02710188  RH  060%=      5-min Rain = 0
KWE1 031318Z 17006KT 27/19 A3002 RMK A01 T02720188  RH  060%=      5-min Rain = 0
KWE1 031319Z 17007KT 27/19 A3002 RMK A01 T02720188  RH  060%=      5-min Rain = 0
KWE1 031320Z 17006KT 27/19 A3002 RMK A01 T02730189  RH  060%=      5-min Rain = 0
KWE1 031321Z 18006KT 27/19 A3002 RMK A01 T02740189  RH  060%=      5-min Rain = 0
KWE1 031322Z 18006KT 27/19 A3002 RMK A01 T02740186  RH  059%=      5-min Rain = 0
KWE1 031323Z 19006KT 27/19 A3002 RMK A01 T02740186  RH  059%=      5-min Rain = 0
KWE1 031324Z 20007KT 27/19 A3002 RMK A01 T02730186  RH  059%=      5-min Rain = 0
KWE1 031325Z 18006KT 27/19 A3002 RMK A01 T02720186  RH  060%=      5-min Rain = 0
KWE1 031326Z 18007KT 27/19 A3002 RMK A01 T02720186  RH  059%=      5-min Rain = 0
KWE1 031327Z 18006KT 27/19 A3002 RMK A01 T02720186  RH  060%=      5-min Rain = 0
KWE1 031328Z 18006KT 27/19 A3002 RMK A01 T02720187  RH  060%=      5-min Rain = 0
KWE1 031329Z 18005KT 27/19 A3002 RMK A01 T02720187  RH  060%=      5-min Rain = 0
KWE1 031330Z 19006KT 27/19 A3002 RMK A01 T02730188  RH  060%=      5-min Rain = 0
KWE1 031331Z 19006KT 27/19 A3002 RMK A01 T02730187  RH  059%=      5-min Rain = 0
KWE1 031332Z 19008KT 27/19 A3002 RMK A01 T02730187  RH  059%=      5-min Rain = 0
KWE1 031333Z 19008KT 27/19 A3002 RMK A01 T02740187  RH  059%=      5-min Rain = 0
KWE1 031334Z 18007KT 27/19 A3002 RMK A01 T02730187  RH  059%=      5-min Rain = 0
KWE1 031335Z 19008KT 27/19 A3002 RMK A01 T02730188  RH  060%=      5-min Rain = 0
KWE1 031336Z 18007KT 27/19 A3002 RMK A01 T02730188  RH  060%=      5-min Rain = 0
KWE1 031337Z 18007KT 27/19 A3002 RMK A01 T02730188  RH  060%=      5-min Rain = 0
KWE1 031338Z 18007KT 27/19 A3002 RMK A01 T02730187  RH  059%=      5-min Rain = 0
KWE1 031339Z 19006KT 27/19 A3002 RMK A01 T02730187  RH  059%=      5-min Rain = 0
KWE1 031340Z 19006KT 27/19 A3002 RMK A01 T02730189  RH  060%=      5-min Rain = 0
KWE1 031341Z 19007KT 27/19 A3002 RMK A01 T02740188  RH  059%=      5-min Rain = 0
KWE1 031342Z 19006KT 27/19 A3002 RMK A01 T02740189  RH  060%=      5-min Rain = 0
KWE1 031343Z 19007KT 28/19 A3002 RMK A01 T02760189  RH  059%=      5-min Rain = 0
KWE1 031344Z 20007KT 28/19 A3002 RMK A01 T02760190  RH  059%=      5-min Rain = 0
KWE1 031345Z 19008KT 28/19 A3002 RMK A01 T02770190  RH  059%=      5-min Rain = 0
KWE1 031346Z 20007KT 28/19 A3002 RMK A01 T02770191  RH  059%=      5-min Rain = 0
KWE1 031347Z 20007KT 28/19 A3002 RMK A01 T02770190  RH  059%=      5-min Rain = 0
KWE1 031348Z 18007KT 28/19 A3002 RMK A01 T02770191  RH  060%=      5-min Rain = 0
KWE1 031349Z 18008KT 28/19 A3002 RMK A01 T02770191  RH  059%=      5-min Rain = 0
KWE1 031350Z 19008KT 28/19 A3002 RMK A01 T02770190  RH  059%=      5-min Rain = 0
KWE1 031351Z 18007KT 28/19 A3002 RMK A01 T02770191  RH  060%=      5-min Rain = 0
KWE1 031352Z 19008KT 28/19 A3002 RMK A01 T02770192  RH  060%=      5-min Rain = 0
KWE1 031353Z 19008KT 28/19 A3002 RMK A01 T02780190  RH  059%=      5-min Rain = 0
KWE1 031354Z 20006KT 28/19 A3002 RMK A01 T02780191  RH  059%=      5-min Rain = 0
KWE1 031355Z 19008KT 28/19 A3002 RMK A01 T02780192  RH  059%=      5-min Rain = 0
KWE1 031356Z 20006KT 28/19 A3002 RMK A01 T02780192  RH  059%=      5-min Rain = 0
KWE1 031357Z 20007KT 28/19 A3003 RMK A01 T02790193  RH  060%=      5-min Rain = 0
KWE1 031358Z 19006KT 28/19 A3003 RMK A01 T02790192  RH  059%=      5-min Rain = 0
KWE1 031359Z 20006KT 28/19 A3003 RMK A01 T02790192  RH  059%=      5-min Rain = 0
KWE1 031400Z 18006KT 28/19 A3003 RMK A01 T02790191  RH  059%=      5-min Rain = 0
KWE1 031401Z 19008KT 28/19 A3003 RMK A01 T02800192  RH  059%=      5-min Rain = 0
KWE1 031402Z 19007KT 28/19 A3003 RMK A01 T02810193  RH  059%=      5-min Rain = 0
KWE1 031403Z 19007KT 28/19 A3003 RMK A01 T02810192  RH  059%=      5-min Rain = 0
KWE1 031404Z 18007KT 28/19 A3003 RMK A01 T02820194  RH  059%=      5-min Rain = 0
KWE1 031405Z 18008KT 28/19 A3003 RMK A01 T02820194  RH  059%=      5-min Rain = 0
KWE1 031406Z 19007KT 28/19 A3003 RMK A01 T02830193  RH  058%=      5-min Rain = 0
KWE1 031407Z 19006KT 28/19 A3003 RMK A01 T02840193  RH  058%=      5-min Rain = 0
KWE1 031408Z 19005KT 28/19 A3003 RMK A01 T02840193  RH  058%=      5-min Rain = 0
KWE1 031409Z 19007KT 28/19 A3003 RMK A01 T02840193  RH  058%=      5-min Rain = 0
KWE1 031410Z 20006KT 29/19 A3003 RMK A01 T02850192  RH  057%=      5-min Rain = 0
KWE1 031411Z 20006KT 29/19 A3003 RMK A01 T02850192  RH  057%=      5-min Rain = 0
KWE1 031412Z 18006KT 29/19 A3003 RMK A01 T02850193  RH  057%=      5-min Rain = 0
KWE1 031413Z 20006KT 29/19 A3003 RMK A01 T02850193  RH  057%=      5-min Rain = 0
KWE1 031414Z 19005KT 29/19 A3003 RMK A01 T02850191  RH  057%=      5-min Rain = 0
KWE1 031415Z 19006KT 29/19 A3003 RMK A01 T02860193  RH  057%=      5-min Rain = 0
KWE1 031416Z 19008KT 29/19 A3003 RMK A01 T02860191  RH  056%=      5-min Rain = 0
KWE1 031417Z 19006KT 29/19 A3003 RMK A01 T02870192  RH  056%=      5-min Rain = 0
KWE1 031418Z 18007KT 29/19 A3003 RMK A01 T02870192  RH  056%=      5-min Rain = 0
KWE1 031419Z 18007KT 29/19 A3003 RMK A01 T02880192  RH  056%=      5-min Rain = 0
KWE1 031420Z 19007KT 29/19 A3003 RMK A01 T02880192  RH  056%=      5-min Rain = 0
KWE1 031421Z 20007KT 29/19 A3004 RMK A01 T02880192  RH  056%=      5-min Rain = 0
KWE1 031422Z 19007KT 29/19 A3004 RMK A01 T02890192  RH  056%=      5-min Rain = 0
KWE1 031423Z 19007KT 29/19 A3004 RMK A01 T02890192  RH  056%=      5-min Rain = 0
KWE1 031424Z 19007KT 29/19 A3004 RMK A01 T02890191  RH  056%=      5-min Rain = 0
KWE1 031425Z 18008KT 29/19 A3004 RMK A01 T02890192  RH  056%=      5-min Rain = 0
KWE1 031426Z 18008KT 29/19 A3004 RMK A01 T02900192  RH  055%=      5-min Rain = 0
KWE1 031427Z 18008KT 29/19 A3004 RMK A01 T02910192  RH  055%=      5-min Rain = 0
KWE1 031428Z 17007KT 29/19 A3004 RMK A01 T02910192  RH  055%=      5-min Rain = 0
KWE1 031429Z 18006KT 29/19 A3004 RMK A01 T02920192  RH  055%=      5-min Rain = 0
KWE1 031430Z 20006KT 29/19 A3004 RMK A01 T02920192  RH  055%=      5-min Rain = 0
KWE1 031431Z 20007KT 29/19 A3004 RMK A01 T02920193  RH  055%=      5-min Rain = 0
KWE1 031432Z 21008KT 29/19 A3004 RMK A01 T02930193  RH  055%=      5-min Rain = 0
KWE1 031433Z 21008KT 29/19 A3004 RMK A01 T02920192  RH  055%=      5-min Rain = 0
KWE1 031434Z 20009KT 29/19 A3004 RMK A01 T02920192  RH  055%=      5-min Rain = 0
KWE1 031435Z 21009KT 29/19 A3004 RMK A01 T02910191  RH  055%=      5-min Rain = 0
KWE1 031436Z 22007KT 29/19 A3004 RMK A01 T02910192  RH  055%=      5-min Rain = 0
KWE1 031437Z 21007KT 29/19 A3004 RMK A01 T02920192  RH  055%=      5-min Rain = 0
KWE1 031438Z 22007KT 29/19 A3004 RMK A01 T02920191  RH  054%=      5-min Rain = 0
KWE1 031439Z 23007KT 29/19 A3004 RMK A01 T02920192  RH  055%=      5-min Rain = 0
KWE1 031440Z 24007KT 29/19 A3004 RMK A01 T02930192  RH  055%=      5-min Rain = 0
KWE1 031441Z 23007KT 29/19 A3004 RMK A01 T02920192  RH  055%=      5-min Rain = 0
KWE1 031442Z 22007KT 29/19 A3004 RMK A01 T02920192  RH  055%=      5-min Rain = 0
KWE1 031443Z 22008KT 29/19 A3004 RMK A01 T02930193  RH  055%=      5-min Rain = 0
KWE1 031444Z 21007KT 29/19 A3004 RMK A01 T02940192  RH  054%=      5-min Rain = 0
KWE1 031445Z 21007KT 30/19 A3004 RMK A01 T02950194  RH  054%=      5-min Rain = 0
KWE1 031446Z 22006KT 30/19 A3004 RMK A01 T02970194  RH  054%=      5-min Rain = 0
KWE1 031447Z 22005KT 30/19 A3004 RMK A01 T02970194  RH  054%=      5-min Rain = 0
KWE1 031448Z 21007KT 30/19 A3004 RMK A01 T02970194  RH  054%=      5-min Rain = 0
KWE1 031449Z 21005KT 30/19 A3004 RMK A01 T02970193  RH  054%=      5-min Rain = 0
KWE1 031450Z 21006KT 30/19 A3004 RMK A01 T02970194  RH  054%=      5-min Rain = 0
KWE1 031451Z 23006KT 30/20 A3004 RMK A01 T02970195  RH  054%=      5-min Rain = 0
KWE1 031452Z 23006KT 30/19 A3004 RMK A01 T02970193  RH  053%=      5-min Rain = 0
KWE1 031453Z 23006KT 30/19 A3004 RMK A01 T02980194  RH  054%=      5-min Rain = 0
KWE1 031454Z 22007KT 30/20 A3004 RMK A01 T02990195  RH  054%=      5-min Rain = 0
KWE1 031455Z 22007KT 30/20 A3004 RMK A01 T03010195  RH  053%=      5-min Rain = 0
KWE1 031456Z 23004KT 30/20 A3004 RMK A01 T03030198  RH  053%=      5-min Rain = 0
KWE1 031457Z 22008KT 30/20 A3004 RMK A01 T03040196  RH  052%=      5-min Rain = 0
KWE1 031458Z 21008KT 30/19 A3004 RMK A01 T03030194  RH  052%=      5-min Rain = 0
KWE1 031459Z 21007KT 30/19 A3004 RMK A01 T03020194  RH  052%=      5-min Rain = 0
KWE1 031500Z 21006KT 30/20 A3004 RMK A01 T03020195  RH  053%=      5-min Rain = 0
KWE1 031501Z 22006KT 30/20 A3004 RMK A01 T03030195  RH  053%=      5-min Rain = 0
KWE1 031502Z 22006KT 30/20 A3004 RMK A01 T03040195  RH  052%=      5-min Rain = 0
KWE1 031503Z 23005KT 30/20 A3004 RMK A01 T03040195  RH  052%=      5-min Rain = 0
KWE1 031504Z 23007KT 30/20 A3004 RMK A01 T03040196  RH  052%=      5-min Rain = 0
KWE1 031505Z 23006KT 31/20 A3004 RMK A01 T03050196  RH  052%=      5-min Rain = 0
KWE1 031506Z 22005KT 31/20 A3003 RMK A01 T03050196  RH  052%=      5-min Rain = 0
KWE1 031507Z 23006KT 31/20 A3003 RMK A01 T03060197  RH  052%=      5-min Rain = 0
KWE1 031508Z 22005KT 31/20 A3003 RMK A01 T03070196  RH  052%=      5-min Rain = 0
KWE1 031509Z 23007KT 31/20 A3003 RMK A01 T03080197  RH  052%=      5-min Rain = 0
KWE1 031510Z 24007KT 31/20 A3003 RMK A01 T03090196  RH  051%=      5-min Rain = 0
KWE1 031511Z 24005KT 31/20 A3003 RMK A01 T03080195  RH  051%=      5-min Rain = 0
KWE1 031512Z 26006KT 31/20 A3003 RMK A01 T03070195  RH  051%=      5-min Rain = 0
KWE1 031513Z 21006KT 31/20 A3003 RMK A01 T03070195  RH  051%=      5-min Rain = 0
KWE1 031514Z 21008KT 31/20 A3003 RMK A01 T03080197  RH  052%=      5-min Rain = 0
KWE1 031515Z 21009KT 31/20 A3003 RMK A01 T03100198  RH  051%=      5-min Rain = 0
KWE1 031516Z 22008KT 31/20 A3003 RMK A01 T03120197  RH  050%=      5-min Rain = 0
KWE1 031517Z 21006KT 31/20 A3003 RMK A01 T03110196  RH  050%=      5-min Rain = 0
KWE1 031518Z 20008KT 31/20 A3003 RMK A01 T03100197  RH  051%=      5-min Rain = 0
KWE1 031519Z 21008KT 31/20 A3003 RMK A01 T03100197  RH  051%=      5-min Rain = 0
KWE1 031520Z 21008KT 31/20 A3003 RMK A01 T03120198  RH  051%=      5-min Rain = 0
KWE1 031521Z 20008KT 31/20 A3003 RMK A01 T03140198  RH  050%=      5-min Rain = 0
KWE1 031522Z 21008KT 32/20 A3003 RMK A01 T03150197  RH  050%=      5-min Rain = 0
KWE1 031523Z 24007KT 31/20 A3003 RMK A01 T03140197  RH  050%=      5-min Rain = 0
KWE1 031524Z 24006KT 31/20 A3003 RMK A01 T03140195  RH  049%=      5-min Rain = 0
KWE1 031525Z 22007KT 31/20 A3003 RMK A01 T03140198  RH  050%=      5-min Rain = 0
KWE1 031526Z 22008KT 32/20 A3003 RMK A01 T03150196  RH  049%=      5-min Rain = 0
KWE1 031527Z 22009KT 32/20 A3003 RMK A01 T03150197  RH  049%=      5-min Rain = 0
KWE1 031528Z 23008KT 32/20 A3003 RMK A01 T03170196  RH  049%=      5-min Rain = 0
KWE1 031529Z 24007KT 32/20 A3003 RMK A01 T03170195  RH  048%=      5-min Rain = 0
KWE1 031530Z 23006KT 32/20 A3003 RMK A01 T03150196  RH  049%=      5-min Rain = 0
KWE1 031531Z 20005KT 32/20 A3003 RMK A01 T03150197  RH  049%=      5-min Rain = 0
KWE1 031532Z 22008KT 32/20 A3003 RMK A01 T03170197  RH  049%=      5-min Rain = 0
KWE1 031533Z 22007KT 32/20 A3003 RMK A01 T03170196  RH  049%=      5-min Rain = 0
KWE1 031534Z 22006KT 32/20 A3003 RMK A01 T03160197  RH  049%=      5-min Rain = 0
KWE1 031535Z 20005KT 32/20 A3003 RMK A01 T03160197  RH  049%=      5-min Rain = 0
KWE1 031536Z 21009KT 32/20 A3003 RMK A01 T03160196  RH  049%=      5-min Rain = 0
KWE1 031537Z 23007KT 32/20 A3003 RMK A01 T03170196  RH  049%=      5-min Rain = 0
KWE1 031538Z 23004KT 32/20 A3003 RMK A01 T03160196  RH  049%=      5-min Rain = 0
KWE1 031539Z 22006KT 32/20 A3003 RMK A01 T03160198  RH  049%=      5-min Rain = 0
KWE1 031540Z 22008KT 32/20 A3003 RMK A01 T03170196  RH  049%=      5-min Rain = 0
KWE1 031541Z 22005KT 32/20 A3003 RMK A01 T03170196  RH  049%=      5-min Rain = 0
KWE1 031542Z 21004KT 32/20 A3003 RMK A01 T03170196  RH  049%=      5-min Rain = 0
KWE1 031543Z 20008KT 32/20 A3003 RMK A01 T03160196  RH  049%=      5-min Rain = 0
KWE1 031544Z 21009KT 32/20 A3003 RMK A01 T03170196  RH  049%=      5-min Rain = 0
KWE1 031545Z 21007KT 32/20 A3003 RMK A01 T03170196  RH  049%=      5-min Rain = 0
KWE1 031546Z 20007KT 32/20 A3003 RMK A01 T03170197  RH  049%=      5-min Rain = 0
KWE1 031547Z 21006KT 32/20 A3003 RMK A01 T03180196  RH  049%=      5-min Rain = 0
KWE1 031548Z 23005KT 32/20 A3003 RMK A01 T03190197  RH  049%=      5-min Rain = 0
KWE1 031549Z 23009KT 32/20 A3003 RMK A01 T03190197  RH  048%=      5-min Rain = 0
KWE1 031550Z 23009KT 32/20 A3003 RMK A01 T03200196  RH  048%=      5-min Rain = 0
KWE1 031551Z 24008KT 32/20 A3003 RMK A01 T03210197  RH  048%=      5-min Rain = 0
KWE1 031552Z 25007KT 32/20 A3003 RMK A01 T03210196  RH  048%=      5-min Rain = 0
KWE1 031553Z 26006KT 32/20 A3003 RMK A01 T03200196  RH  048%=      5-min Rain = 0
KWE1 031554Z 25008KT 32/20 A3003 RMK A01 T03200198  RH  048%=      5-min Rain = 0
KWE1 031555Z 22008KT 32/20 A3003 RMK A01 T03210199  RH  048%=      5-min Rain = 0
KWE1 031556Z 21006KT 32/20 A3003 RMK A01 T03220197  RH  048%=      5-min Rain = 0
KWE1 031557Z 24007KT 32/20 A3003 RMK A01 T03200197  RH  048%=      5-min Rain = 0
KWE1 031558Z 25008KT 32/20 A3003 RMK A01 T03200196  RH  048%=      5-min Rain = 0
KWE1 031559Z 26007KT 32/20 A3003 RMK A01 T03200196  RH  048%=      5-min Rain = 0
KWE1 031600Z 26009KT 32/20 A3003 RMK A01 T03210196  RH  048%=      5-min Rain = 0
KWE1 031601Z 25007KT 32/20 A3003 RMK A01 T03210197  RH  048%=      5-min Rain = 0
KWE1 031602Z 23005KT 32/20 A3003 RMK A01 T03220199  RH  048%=      5-min Rain = 0
KWE1 031603Z 25004KT 33/20 A3003 RMK A01 T03250200  RH  048%=      5-min Rain = 0
KWE1 031604Z 21005KT 33/20 A3003 RMK A01 T03270199  RH  047%=      5-min Rain = 0
KWE1 031605Z 21004KT 33/20 A3003 RMK A01 T03260198  RH  047%=      5-min Rain = 0
KWE1 031606Z 20004G10KT 33/20 A3003 RMK A01 T03250200  RH  048%=      5-min Rain = 0
KWE1 031607Z 23010KT 33/20 A3003 RMK A01 T03280201  RH  047%=      5-min Rain = 0
KWE1 031608Z 25006KT 33/20 A3003 RMK A01 T03300198  RH  046%=      5-min Rain = 0
KWE1 031609Z 22008KT 33/20 A3003 RMK A01 T03260198  RH  047%=      5-min Rain = 0
KWE1 031610Z 20007KT 33/20 A3003 RMK A01 T03260198  RH  047%=      5-min Rain = 0
KWE1 031611Z 21007KT 33/20 A3003 RMK A01 T03250199  RH  047%=      5-min Rain = 0
KWE1 031612Z 21005KT 33/20 A3003 RMK A01 T03250197  RH  047%=      5-min Rain = 0
KWE1 031613Z 24005KT 33/20 A3003 RMK A01 T03250199  RH  048%=      5-min Rain = 0
KWE1 031614Z 21009KT 33/20 A3003 RMK A01 T03260200  RH  047%=      5-min Rain = 0
KWE1 031615Z 22008KT 33/20 A3003 RMK A01 T03300199  RH  046%=      5-min Rain = 0
KWE1 031616Z 21007KT 33/20 A3003 RMK A01 T03290199  RH  046%=      5-min Rain = 0
KWE1 031617Z 21005KT 33/20 A3003 RMK A01 T03280199  RH  047%=      5-min Rain = 0
KWE1 031618Z 21007KT 33/20 A3002 RMK A01 T03270198  RH  046%=      5-min Rain = 0
KWE1 031619Z 21008KT 33/20 A3002 RMK A01 T03280198  RH  046%=      5-min Rain = 0
KWE1 031620Z 22008KT 33/20 A3002 RMK A01 T03290200  RH  047%=      5-min Rain = 0
KWE1 031621Z 25007KT 33/20 A3003 RMK A01 T03300199  RH  046%=      5-min Rain = 0
KWE1 031622Z 25005KT 33/20 A3003 RMK A01 T03310198  RH  045%=      5-min Rain = 0
KWE1 031623Z 26003KT 33/20 A3003 RMK A01 T03320198  RH  045%=      5-min Rain = 0
KWE1 031624Z 27003KT 33/20 A3003 RMK A01 T03310198  RH  045%=      5-min Rain = 0
KWE1 031625Z 23004KT 33/20 A3003 RMK A01 T03310200  RH  046%=      5-min Rain = 0
KWE1 031626Z 20008KT 33/20 A3003 RMK A01 T03340200  RH  045%=      5-min Rain = 0
KWE1 031627Z 19006KT 33/20 A3003 RMK A01 T03330197  RH  045%=      5-min Rain = 0
KWE1 031628Z 18004KT 33/20 A3003 RMK A01 T03310199  RH  046%=      5-min Rain = 0
KWE1 031629Z 23004KT 33/20 A3003 RMK A01 T03330200  RH  046%=      5-min Rain = 0
KWE1 031630Z 25003KT 34/20 A3003 RMK A01 T03360200  RH  045%=      5-min Rain = 0
KWE1 031631Z 23003KT 34/20 A3003 RMK A01 T03350197  RH  045%=      5-min Rain = 0
KWE1 031632Z 23007KT 33/20 A3003 RMK A01 T03340198  RH  045%=      5-min Rain = 0
KWE1 031633Z 22010KT 34/20 A3003 RMK A01 T03350198  RH  045%=      5-min Rain = 0
KWE1 031634Z 21010KT 34/20 A3003 RMK A01 T03350198  RH  044%=      5-min Rain = 0
KWE1 031635Z 23009KT 34/20 A3003 RMK A01 T03360199  RH  045%=      5-min Rain = 0
KWE1 031636Z 23006KT 34/20 A3003 RMK A01 T03360197  RH  044%=      5-min Rain = 0
KWE1 031637Z 20008KT 33/20 A3003 RMK A01 T03340197  RH  045%=      5-min Rain = 0
KWE1 031638Z 18007KT 33/20 A3003 RMK A01 T03320198  RH  045%=      5-min Rain = 0
KWE1 031639Z 17006KT 33/20 A3003 RMK A01 T03340196  RH  044%=      5-min Rain = 0
KWE1 031640Z 21007KT 34/20 A3003 RMK A01 T03360198  RH  045%=      5-min Rain = 0
KWE1 031641Z 21007KT 34/20 A3003 RMK A01 T03370198  RH  044%=      5-min Rain = 0
KWE1 031642Z 21007KT 34/20 A3003 RMK A01 T03350196  RH  044%=      5-min Rain = 0
KWE1 031643Z 22005KT 34/20 A3003 RMK A01 T03350197  RH  044%=      5-min Rain = 0
KWE1 031644Z 23006KT 34/20 A3003 RMK A01 T03360198  RH  044%=      5-min Rain = 0
KWE1 031645Z 21005KT 34/20 A3003 RMK A01 T03370197  RH  044%=      5-min Rain = 0
KWE1 031646Z 21006KT 34/20 A3003 RMK A01 T03360198  RH  044%=      5-min Rain = 0
KWE1 031647Z 20004KT 33/20 A3003 RMK A01 T03330197  RH  045%=      5-min Rain = 0
KWE1 031648Z 20002KT 33/20 A3003 RMK A01 T03320199  RH  046%=      5-min Rain = 0
KWE1 031649Z 28002KT 33/20 A3003 RMK A01 T03330197  RH  045%=      5-min Rain = 0
KWE1 031650Z 28000KT 33/20 A3002 RMK A01 T03320196  RH  045%=      5-min Rain = 0
KWE1 031651Z 19003KT 33/20 A3003 RMK A01 T03310198  RH  045%=      5-min Rain = 0
KWE1 031652Z 20005KT 33/20 A3003 RMK A01 T03330198  RH  045%=      5-min Rain = 0
KWE1 031653Z 23004KT 34/20 A3003 RMK A01 T03370199  RH  044%=      5-min Rain = 0
KWE1 031654Z 23007KT 34/20 A3003 RMK A01 T03390196  RH  043%=      5-min Rain = 0
KWE1 031655Z 24007KT 34/20 A3003 RMK A01 T03390196  RH  043%=      5-min Rain = 0
KWE1 031656Z 22004KT 34/20 A3003 RMK A01 T03390195  RH  043%=      5-min Rain = 0
KWE1 031657Z 25006KT 34/20 A3002 RMK A01 T03390198  RH  044%=      5-min Rain = 0
KWE1 031658Z 24001KT 34/20 A3003 RMK A01 T03390195  RH  043%=      5-min Rain = 0
KWE1 031659Z 11001KT 34/20 A3003 RMK A01 T03390197  RH  043%=      5-min Rain = 0
KWE1 031700Z 15003KT 34/20 A3002 RMK A01 T03410199  RH  043%=      5-min Rain = 0
KWE1 031701Z 17005KT 34/20 A3002 RMK A01 T03430198  RH  043%=      5-min Rain = 0
KWE1 031702Z 16004KT 34/20 A3002 RMK A01 T03430197  RH  042%=      5-min Rain = 0
KWE1 031703Z 20003KT 34/20 A3002 RMK A01 T03430195  RH  042%=      5-min Rain = 0
KWE1 031704Z 21003KT 34/20 A3002 RMK A01 T03440197  RH  042%=      5-min Rain = 0
KWE1 031705Z 26004KT 35/20 A3002 RMK A01 T03460196  RH  041%=      5-min Rain = 0
KWE1 031706Z 28006KT 35/19 A3002 RMK A01 T03460193  RH  041%=      5-min Rain = 0
KWE1 031707Z 22006KT 34/20 A3002 RMK A01 T03430195  RH  042%=      5-min Rain = 0
KWE1 031708Z 20007KT 35/20 A3002 RMK A01 T03460196  RH  041%=      5-min Rain = 0
KWE1 031709Z 20008KT 35/19 A3002 RMK A01 T03460194  RH  041%=      5-min Rain = 0
KWE1 031710Z 19009KT 34/19 A3002 RMK A01 T03440193  RH  041%=      5-min Rain = 0
KWE1 031711Z 18008KT 34/19 A3002 RMK A01 T03440191  RH  041%=      5-min Rain = 0
KWE1 031712Z 18007KT 34/19 A3002 RMK A01 T03420192  RH  041%=      5-min Rain = 0
KWE1 031713Z 18007KT 34/19 A3002 RMK A01 T03440192  RH  041%=      5-min Rain = 0
KWE1 031714Z 17006KT 35/19 A3002 RMK A01 T03450192  RH  040%=      5-min Rain = 0
KWE1 031715Z 18005KT 35/19 A3002 RMK A01 T03450191  RH  040%=      5-min Rain = 0
KWE1 031716Z 21005KT 35/19 A3002 RMK A01 T03470192  RH  040%=      5-min Rain = 0
KWE1 031717Z 21003KT 35/19 A3002 RMK A01 T03460191  RH  040%=      5-min Rain = 0
KWE1 031718Z 18001KT 34/19 A3002 RMK A01 T03440191  RH  041%=      5-min Rain = 0
KWE1 031719Z 21004KT 35/19 A3002 RMK A01 T03450193  RH  041%=      5-min Rain = 0
KWE1 031720Z 17001KT 35/20 A3002 RMK A01 T03480195  RH  041%=      5-min Rain = 0
KWE1 031721Z 25001KT 35/20 A3002 RMK A01 T03510198  RH  041%=      5-min Rain = 0
KWE1 031722Z 23003KT 36/19 A3002 RMK A01 T03550194  RH  039%=      5-min Rain = 0
KWE1 031723Z 24001KT 35/19 A3002 RMK A01 T03540194  RH  039%=      5-min Rain = 0
KWE1 031724Z 28002KT 35/19 A3002 RMK A01 T03530194  RH  039%=      5-min Rain = 0
KWE1 031725Z 28001KT 35/19 A3002 RMK A01 T03500193  RH  040%=      5-min Rain = 0
KWE1 031726Z 22001KT 35/19 A3002 RMK A01 T03480193  RH  040%=      5-min Rain = 0
KWE1 031727Z 24003KT 35/19 A3002 RMK A01 T03480193  RH  040%=      5-min Rain = 0
KWE1 031728Z 19006KT 35/19 A3002 RMK A01 T03480194  RH  040%=      5-min Rain = 0
KWE1 031729Z 19004KT 35/19 A3002 RMK A01 T03490190  RH  039%=      5-min Rain = 0
KWE1 031730Z 20005KT 35/19 A3001 RMK A01 T03490192  RH  040%=      5-min Rain = 0
KWE1 031731Z 19008KT 35/19 A3001 RMK A01 T03500192  RH  040%=      5-min Rain = 0
KWE1 031732Z 20007KT 35/19 A3001 RMK A01 T03500190  RH  039%=      5-min Rain = 0
KWE1 031733Z 20005KT 35/19 A3001 RMK A01 T03510193  RH  040%=      5-min Rain = 0
KWE1 031734Z 20005KT 35/19 A3001 RMK A01 T03510192  RH  039%=      5-min Rain = 0
KWE1 031735Z 19001KT 35/19 A3001 RMK A01 T03490190  RH  039%=      5-min Rain = 0
KWE1 031736Z 20003KT 35/19 A3001 RMK A01 T03480187  RH  039%=      5-min Rain = 0
KWE1 031737Z 19004KT 35/18 A3001 RMK A01 T03470182  RH  038%=      5-min Rain = 0
KWE1 031738Z 16004KT 35/18 A3001 RMK A01 T03470180  RH  037%=      5-min Rain = 0
KWE1 031739Z 14003KT 35/18 A3001 RMK A01 T03490183  RH  038%=      5-min Rain = 0
KWE1 031740Z 17003KT 35/19 A3001 RMK A01 T03490189  RH  039%=      5-min Rain = 0
KWE1 031741Z 16002KT 35/19 A3001 RMK A01 T03510190  RH  039%=      5-min Rain = 0
KWE1 031742Z 34001KT 35/19 A3001 RMK A01 T03540190  RH  038%=      5-min Rain = 0
KWE1 031743Z 29001KT 35/19 A3001 RMK A01 T03540191  RH  038%=      5-min Rain = 0
KWE1 031744Z 19003KT 35/19 A3001 RMK A01 T03530189  RH  038%=      5-min Rain = 0
KWE1 031745Z 18003KT 35/19 A3001 RMK A01 T03540188  RH  038%=      5-min Rain = 0
KWE1 031746Z 18007KT 36/19 A3001 RMK A01 T03550187  RH  037%=      5-min Rain = 0
KWE1 031747Z 18006KT 36/19 A3001 RMK A01 T03580186  RH  036%=      5-min Rain = 0
KWE1 031748Z 18006KT 36/18 A3001 RMK A01 T03580183  RH  036%=      5-min Rain = 0
KWE1 031749Z 20009KT 36/18 A3001 RMK A01 T03580182  RH  035%=      5-min Rain = 0
KWE1 031750Z 23006KT 36/18 A3001 RMK A01 T03570183  RH  036%=      5-min Rain = 0
KWE1 031751Z 21007KT 36/18 A3001 RMK A01 T03560182  RH  036%=      5-min Rain = 0
KWE1 031752Z 22007KT 35/18 A3001 RMK A01 T03540183  RH  036%=      5-min Rain = 0
KWE1 031753Z 20006KT 35/18 A3001 RMK A01 T03540182  RH  036%=      5-min Rain = 0
KWE1 031754Z 18006KT 36/18 A3001 RMK A01 T03560179  RH  035%=      5-min Rain = 0
KWE1 031755Z 16006KT 36/18 A3001 RMK A01 T03560179  RH  035%=      5-min Rain = 0
KWE1 031756Z 14006KT 36/18 A3001 RMK A01 T03570182  RH  036%=      5-min Rain = 0
KWE1 031757Z 18005KT 36/18 A3001 RMK A01 T03590183  RH  036%=      5-min Rain = 0
KWE1 031758Z 19003KT 36/19 A3001 RMK A01 T03630186  RH  035%=      5-min Rain = 0
KWE1 031759Z 24005KT 37/19 A3001 RMK A01 T03650187  RH  035%=      5-min Rain = 0
KWE1 031800Z 25006KT 36/19 A3001 RMK A01 T03640187  RH  036%=      5-min Rain = 0
KWE1 031801Z 26007KT 36/18 A3001 RMK A01 T03590184  RH  036%=      5-min Rain = 0
KWE1 031802Z 25006KT 36/18 A3001 RMK A01 T03570179  RH  035%=      5-min Rain = 0
KWE1 031803Z 26005KT 36/18 A30 RMK A01 T03550181  RH  036%=      5-min Rain = 0
KWE1 031804Z 28005KT 36/18 A30 RMK A01 T03560178  RH  035%=      5-min Rain = 0
KWE1 031805Z 29003KT 36/18 A30 RMK A01 T03580180  RH  035%=      5-min Rain = 0
KWE1 031806Z 28002KT 36/18 A3001 RMK A01 T03570179  RH  035%=      5-min Rain = 0
KWE1 031807Z 20005KT 36/18 A30 RMK A01 T03550180  RH  036%=      5-min Rain = 0
KWE1 031808Z 19004KT 36/18 A30 RMK A01 T03580181  RH  035%=      5-min Rain = 0
KWE1 031809Z 19006KT 36/18 A30 RMK A01 T03590182  RH  035%=      5-min Rain = 0
KWE1 031810Z 16008KT 37/19 A30 RMK A01 T03650185  RH  035%=      5-min Rain = 0
KWE1 031811Z 16008KT 37/18 A30 RMK A01 T03700182  RH  033%=      5-min Rain = 0
KWE1 031812Z 19006KT 37/19 A30 RMK A01 T03690185  RH  034%=      5-min Rain = 0
KWE1 031813Z 19004KT 37/18 A30 RMK A01 T03680182  RH  034%=      5-min Rain = 0
KWE1 031814Z 26002G7KT 36/18 A30 RMK A01 T03640183  RH  035%=      5-min Rain = 0
KWE1 031815Z 28006KT 36/18 A30 RMK A01 T03630182  RH  035%=      5-min Rain = 0
KWE1 031816Z 27003KT 36/18 A30 RMK A01 T03600178  RH  034%=      5-min Rain = 0
KWE1 031817Z 23002KT 36/18 A30 RMK A01 T03570179  RH  035%=      5-min Rain = 0
KWE1 031818Z 21002KT 36/18 A30 RMK A01 T03560180  RH  035%=      5-min Rain = 0
KWE1 031819Z 21008KT 36/18 A30 RMK A01 T03570180  RH  035%=      5-min Rain = 0
KWE1 031820Z 22008KT 36/18 A30 RMK A01 T03580176  RH  034%=      5-min Rain = 0
KWE1 031821Z 22005KT 36/18 A30 RMK A01 T03570176  RH  034%=      5-min Rain = 0
KWE1 031822Z 21006KT 36/18 A30 RMK A01 T03570178  RH  035%=      5-min Rain = 0
KWE1 031823Z 21007KT 36/18 A30 RMK A01 T03610176  RH  034%=      5-min Rain = 0
KWE1 031824Z 20008KT 36/18 A30 RMK A01 T03610178  RH  034%=      5-min Rain = 0
KWE1 031825Z 16008KT 37/18 A30 RMK A01 T03650175  RH  033%=      5-min Rain = 0
KWE1 031826Z 16009KT 37/17 A30 RMK A01 T03710170  RH  031%=      5-min Rain = 0
KWE1 031827Z 17006KT 37/17 A30 RMK A01 T03720168  RH  030%=      5-min Rain = 0
KWE1 031828Z 20005KT 37/17 A30 RMK A01 T03700169  RH  031%=      5-min Rain = 0
KWE1 031829Z 22004KT 37/17 A30 RMK A01 T03650165  RH  031%=      5-min Rain = 0
KWE1 031830Z 16007KT 36/16 A30 RMK A01 T03620162  RH  031%=      5-min Rain = 0
KWE1 031831Z 17007KT 36/17 A30 RMK A01 T03630165  RH  031%=      5-min Rain = 0
KWE1 031832Z 17008KT 36/17 A30 RMK A01 T03630167  RH  031%=      5-min Rain = 0
KWE1 031833Z 17009KT 37/17 A30 RMK A01 T03670170  RH  031%=      5-min Rain = 0
KWE1 031834Z 16005KT 37/17 A30 RMK A01 T03690171  RH  031%=      5-min Rain = 0
KWE1 031835Z 12003KT 37/17 A30 RMK A01 T03710171  RH  031%=      5-min Rain = 0
KWE1 031836Z 11004KT 37/17 A30 RMK A01 T03710169  RH  030%=      5-min Rain = 0
KWE1 031837Z 09003KT 37/17 A30 RMK A01 T03670166  RH  031%=      5-min Rain = 0
KWE1 031838Z 09004KT 36/17 A30 RMK A01 T03640171  RH  032%=      5-min Rain = 0
KWE1 031839Z 09005KT 36/18 A30 RMK A01 T03620175  RH  033%=      5-min Rain = 0
KWE1 031840Z 10005KT 36/18 A30 RMK A01 T03620175  RH  033%=      5-min Rain = 0
KWE1 031841Z 10005KT 36/18 A30 RMK A01 T03620175  RH  033%=      5-min Rain = 0
KWE1 031842Z 15006KT 36/18 A30 RMK A01 T03620178  RH  034%=      5-min Rain = 0
KWE1 031843Z 15005KT 37/18 A30 RMK A01 T03650175  RH  033%=      5-min Rain = 0
KWE1 031844Z 21004KT 37/18 A30 RMK A01 T03650177  RH  033%=      5-min Rain = 0
KWE1 031845Z 20004KT 37/18 A30 RMK A01 T03650176  RH  033%=      5-min Rain = 0
KWE1 031846Z 14004KT 36/18 A30 RMK A01 T03640179  RH  034%=      5-min Rain = 0
KWE1 031847Z 14003G9KT 36/18 A30 RMK A01 T03630177  RH  034%=      5-min Rain = 0
KWE1 031848Z 13009KT 36/18 A30 RMK A01 T03640180  RH  034%=      5-min Rain = 0
KWE1 031849Z 13008KT 37/18 A30 RMK A01 T03650179  RH  033%=      5-min Rain = 0
KWE1 031850Z 11005KT 36/18 A2999 RMK A01 T03630179  RH  034%=      5-min Rain = 0
KWE1 031851Z 09008KT 36/18 A2999 RMK A01 T03630182  RH  034%=      5-min Rain = 0
KWE1 031852Z 09008KT 37/18 A2999 RMK A01 T03650183  RH  034%=      5-min Rain = 0
KWE1 031853Z 08007KT 37/18 A2999 RMK A01 T03660182  RH  034%=      5-min Rain = 0
KWE1 031854Z 07006KT 36/18 A2999 RMK A01 T03640179  RH  034%=      5-min Rain = 0
KWE1 031855Z 06005KT 36/18 A2999 RMK A01 T03590177  RH  034%=      5-min Rain = 0
KWE1 031856Z 08003KT 36/18 A2999 RMK A01 T03570178  RH  035%=      5-min Rain = 0
KWE1 031857Z 11004KT 36/18 A2999 RMK A01 T03570177  RH  035%=      5-min Rain = 0
KWE1 031858Z 15009KT 36/18 A2999 RMK A01 T03590178  RH  034%=      5-min Rain = 0
KWE1 031859Z 15009KT 37/17 A2999 RMK A01 T03660174  RH  032%=      5-min Rain = 0
KWE1 031900Z 16009KT 37/17 A2999 RMK A01 T03680172  RH  032%=      5-min Rain = 0
KWE1 031901Z 16007KT 37/17 A2999 RMK A01 T03720173  RH  031%=      5-min Rain = 0
KWE1 031902Z 13009KT 38/18 A2999 RMK A01 T03750175  RH  031%=      5-min Rain = 0
KWE1 031903Z 15009KT 38/17 A2999 RMK A01 T03760174  RH  031%=      5-min Rain = 0
KWE1 031904Z 16009KT 37/17 A2999 RMK A01 T03740173  RH  031%=      5-min Rain = 0
KWE1 031905Z 15006KT 37/17 A2999 RMK A01 T03710172  RH  031%=      5-min Rain = 0
KWE1 031906Z 18005KT 37/18 A2999 RMK A01 T03730175  RH  031%=      5-min Rain = 0
KWE1 031907Z 25002KT 38/17 A2999 RMK A01 T03760172  RH  030%=      5-min Rain = 0
KWE1 031908Z 25002KT 37/17 A2999 RMK A01 T03700170  RH  031%=      5-min Rain = 0
KWE1 031909Z 15003KT 37/17 A2999 RMK A01 T03690170  RH  031%=      5-min Rain = 0
KWE1 031910Z 12003KT 37/17 A2999 RMK A01 T03670169  RH  031%=      5-min Rain = 0
KWE1 031911Z 14004KT 37/17 A2999 RMK A01 T03680170  RH  031%=      5-min Rain = 0
KWE1 031912Z 11005KT 37/17 A2999 RMK A01 T03700173  RH  031%=      5-min Rain = 0
KWE1 031913Z 08007KT 37/17 A2999 RMK A01 T03720170  RH  030%=      5-min Rain = 0
KWE1 031914Z 08005KT 37/17 A2999 RMK A01 T03690167  RH  030%=      5-min Rain = 0
KWE1 031915Z 11002KT 37/17 A2999 RMK A01 T03670166  RH  031%=      5-min Rain = 0
KWE1 031916Z 08002KT 37/17 A2999 RMK A01 T03670169  RH  031%=      5-min Rain = 0
KWE1 031917Z 12006KT 37/17 A2999 RMK A01 T03700171  RH  031%=      5-min Rain = 0
KWE1 031918Z 15009KT 37/17 A2999 RMK A01 T03720169  RH  030%=      5-min Rain = 0
KWE1 031919Z 16010KT 37/17 A2999 RMK A01 T03730169  RH  030%=      5-min Rain = 0
KWE1 031920Z 17009G14KT 37/17 A2999 RMK A01 T03740171  RH  030%=      5-min Rain = 0
KWE1 031921Z 15011KT 38/17 A2999 RMK A01 T03770169  RH  030%=      5-min Rain = 0
KWE1 031922Z 17009KT 38/17 A2999 RMK A01 T03760167  RH  029%=      5-min Rain = 0
KWE1 031923Z 16012KT 38/16 A2999 RMK A01 T03750162  RH  029%=      5-min Rain = 0
KWE1 031924Z 16009KT 37/16 A2999 RMK A01 T03740162  RH  029%=      5-min Rain = 0
KWE1 031925Z 17009KT 37/16 A2999 RMK A01 T03730163  RH  029%=      5-min Rain = 0
KWE1 031926Z 17009KT 37/17 A2999 RMK A01 T03740165  RH  029%=      5-min Rain = 0
KWE1 031927Z 17008KT 37/17 A2999 RMK A01 T03720166  RH  030%=      5-min Rain = 0
KWE1 031928Z 15008KT 38/17 A2999 RMK A01 T03750167  RH  029%=      5-min Rain = 0
KWE1 031929Z 13003KT 38/17 A2999 RMK A01 T03760167  RH  029%=      5-min Rain = 0
KWE1 031930Z 13008G13KT 38/17 A2999 RMK A01 T03770171  RH  030%=      5-min Rain = 0
KWE1 031931Z 13013KT 38/17 A2999 RMK A01 T03810171  RH  029%=      5-min Rain = 0
KWE1 031932Z 14009KT 38/17 A2999 RMK A01 T03790168  RH  029%=      5-min Rain = 0
KWE1 031933Z 15004KT 38/16 A2999 RMK A01 T03750164  RH  029%=      5-min Rain = 0
KWE1 031934Z 15004KT 37/17 A2999 RMK A01 T03710166  RH  030%=      5-min Rain = 0
KWE1 031935Z 19006KT 37/17 A2999 RMK A01 T03700168  RH  030%=      5-min Rain = 0
KWE1 031936Z 19008KT 37/17 A2998 RMK A01 T03730170  RH  030%=      5-min Rain = 0
KWE1 031937Z 19008KT 37/17 A2998 RMK A01 T03740168  RH  030%=      5-min Rain = 0
KWE1 031938Z 19006KT 37/17 A2998 RMK A01 T03690167  RH  030%=      5-min Rain = 0
KWE1 031939Z 22005KT 37/17 A2998 RMK A01 T03670168  RH  031%=      5-min Rain = 0
KWE1 031940Z 18003KT 37/17 A2998 RMK A01 T03690170  RH  031%=      5-min Rain = 0
KWE1 031941Z 13002KT 37/17 A2998 RMK A01 T03720171  RH  031%=      5-min Rain = 0
KWE1 031942Z 13006KT 37/17 A2998 RMK A01 T03740170  RH  030%=      5-min Rain = 0
KWE1 031943Z 12008KT 38/16 A2998 RMK A01 T03750164  RH  029%=      5-min Rain = 0
KWE1 031944Z 12009KT 37/16 A2998 RMK A01 T03740164  RH  029%=      5-min Rain = 0
KWE1 031945Z 10009KT 38/16 A2998 RMK A01 T03770163  RH  028%=      5-min Rain = 0
KWE1 031946Z 09008KT 38/17 A2998 RMK A01 T03770165  RH  029%=      5-min Rain = 0
KWE1 031947Z 10007KT 37/16 A2998 RMK A01 T03740162  RH  029%=      5-min Rain = 0
KWE1 031948Z 12008G15KT 37/17 A2998 RMK A01 T03720167  RH  030%=      5-min Rain = 0
KWE1 031949Z 14013KT 38/17 A2998 RMK A01 T03760166  RH  029%=      5-min Rain = 0
KWE1 031950Z 13012KT 38/17 A2998 RMK A01 T03790168  RH  029%=      5-min Rain = 0
KWE1 031951Z 13013KT 38/17 A2998 RMK A01 T03800166  RH  028%=      5-min Rain = 0
KWE1 031952Z 13012KT 38/16 A2998 RMK A01 T03770163  RH  028%=      5-min Rain = 0
KWE1 031953Z 13011KT 38/16 A2999 RMK A01 T03750161  RH  028%=      5-min Rain = 0
KWE1 031954Z 13007KT 37/16 A2999 RMK A01 T03740164  RH  029%=      5-min Rain = 0
KWE1 031955Z 16003KT 37/16 A2998 RMK A01 T03740164  RH  029%=      5-min Rain = 0
KWE1 031956Z 12006G11KT 37/17 A2998 RMK A01 T03720165  RH  030%=      5-min Rain = 0
KWE1 031957Z 10010KT 37/17 A2998 RMK A01 T03720167  RH  030%=      5-min Rain = 0
KWE1 031958Z 10010KT 37/17 A2998 RMK A01 T03720167  RH  030%=      5-min Rain = 0
KWE1 031959Z 09011KT 37/17 A2998 RMK A01 T03710167  RH  030%=      5-min Rain = 0
KWE1 032000Z 09010KT 37/17 A2998 RMK A01 T03720167  RH  030%=      5-min Rain = 0
KWE1 032001Z 11011KT 37/17 A2998 RMK A01 T03690168  RH  031%=      5-min Rain = 0
KWE1 032002Z 09009KT 37/17 A2998 RMK A01 T03690168  RH  031%=      5-min Rain = 0
KWE1 032003Z 09012KT 37/17 A2998 RMK A01 T03680167  RH  030%=      5-min Rain = 0
KWE1 032004Z 09010KT 37/17 A2998 RMK A01 T03690165  RH  030%=      5-min Rain = 0
KWE1 032005Z 14010KT 37/17 A2998 RMK A01 T03690166  RH  030%=      5-min Rain = 0
KWE1 032006Z 13011KT 37/17 A2998 RMK A01 T03740165  RH  029%=      5-min Rain = 0
KWE1 032007Z 13007KT 38/16 A2998 RMK A01 T03760161  RH  028%=      5-min Rain = 0
KWE1 032008Z 16009G16KT 38/16 A2998 RMK A01 T03770163  RH  028%=      5-min Rain = 0
KWE1 032009Z 13011KT 38/16 A2998 RMK A01 T03780161  RH  028%=      5-min Rain = 0
KWE1 032010Z 15010KT 38/16 A2998 RMK A01 T03770163  RH  028%=      5-min Rain = 0
KWE1 032011Z 13010KT 38/16 A2998 RMK A01 T03770164  RH  029%=      5-min Rain = 0
KWE1 032012Z 13010KT 38/16 A2998 RMK A01 T03770160  RH  028%=      5-min Rain = 0
KWE1 032013Z 14006KT 38/16 A2998 RMK A01 T03760161  RH  028%=      5-min Rain = 0
KWE1 032014Z 17007KT 38/16 A2998 RMK A01 T03750163  RH  029%=      5-min Rain = 0
KWE1 032015Z 17007KT 37/16 A2998 RMK A01 T03740161  RH  029%=      5-min Rain = 0
KWE1 032016Z 16004KT 37/16 A2998 RMK A01 T03720158  RH  028%=      5-min Rain = 0
KWE1 032017Z 17003KT 37/16 A2998 RMK A01 T03700160  RH  029%=      5-min Rain = 0
KWE1 032018Z 15003KT 37/16 A2998 RMK A01 T03700163  RH  029%=      5-min Rain = 0
KWE1 032019Z 12006KT 37/17 A2998 RMK A01 T03720167  RH  030%=      5-min Rain = 0
KWE1 032020Z 13007KT 37/17 A2998 RMK A01 T03740166  RH  029%=      5-min Rain = 0
KWE1 032021Z 13005KT 37/17 A2998 RMK A01 T03710165  RH  030%=      5-min Rain = 0
KWE1 032022Z 11009KT 37/17 A2998 RMK A01 T03700167  RH  030%=      5-min Rain = 0
KWE1 032023Z 11010KT 37/17 A2998 RMK A01 T03710167  RH  030%=      5-min Rain = 0
KWE1 032024Z 11009KT 37/17 A2998 RMK A01 T03730168  RH  030%=      5-min Rain = 0
KWE1 032025Z 11007KT 38/17 A2998 RMK A01 T03760171  RH  030%=      5-min Rain = 0
KWE1 032026Z 12007KT 38/17 A2998 RMK A01 T03770171  RH  030%=      5-min Rain = 0
KWE1 032027Z 12008KT 38/17 A2998 RMK A01 T03770172  RH  030%=      5-min Rain = 0
KWE1 032028Z 12008KT 38/17 A2998 RMK A01 T03780172  RH  030%=      5-min Rain = 0
KWE1 032029Z 11008KT 38/17 A2998 RMK A01 T03770173  RH  030%=      5-min Rain = 0
KWE1 032030Z 10005KT 37/17 A2998 RMK A01 T03740174  RH  031%=      5-min Rain = 0
KWE1 032031Z 09005KT 37/18 A2998 RMK A01 T03720175  RH  031%=      5-min Rain = 0
KWE1 032032Z 08007G12KT 37/17 A2998 RMK A01 T03700174  RH  032%=      5-min Rain = 0
KWE1 032033Z 12010KT 37/18 A2998 RMK A01 T03700179  RH  033%=      5-min Rain = 0
KWE1 032034Z 14009KT 38/18 A2998 RMK A01 T03760179  RH  032%=      5-min Rain = 0
KWE1 032035Z 15010KT 38/18 A2998 RMK A01 T03790179  RH  031%=      5-min Rain = 0
KWE1 032036Z 13007KT 38/18 A2998 RMK A01 T03790180  RH  031%=      5-min Rain = 0
KWE1 032037Z 09008KT 38/18 A2998 RMK A01 T03760178  RH  031%=      5-min Rain = 0
KWE1 032038Z 11009KT 37/18 A2998 RMK A01 T03730178  RH  032%=      5-min Rain = 0
KWE1 032039Z 13010KT 37/18 A2997 RMK A01 T03720175  RH  031%=      5-min Rain = 0
KWE1 032040Z 10008KT 37/17 A2997 RMK A01 T03730172  RH  031%=      5-min Rain = 0
KWE1 032041Z 10006KT 37/17 A2997 RMK A01 T03710169  RH  031%=      5-min Rain = 0
KWE1 032042Z 10004KT 37/17 A2997 RMK A01 T03690172  RH  031%=      5-min Rain = 0
KWE1 032043Z 14009G14KT 37/17 A2997 RMK A01 T03680174  RH  032%=      5-min Rain = 0
KWE1 032044Z 11011KT 37/18 A2997 RMK A01 T03700177  RH  032%=      5-min Rain = 0
KWE1 032045Z 12011KT 38/17 A2997 RMK A01 T03750174  RH  031%=      5-min Rain = 0
KWE1 032046Z 12012KT 38/17 A2997 RMK A01 T03760173  RH  031%=      5-min Rain = 0
KWE1 032047Z 10009KT 37/17 A2997 RMK A01 T03730171  RH  030%=      5-min Rain = 0
KWE1 032048Z 10011KT 37/17 A2997 RMK A01 T03720171  RH  031%=      5-min Rain = 0
KWE1 032049Z 10011KT 37/17 A2997 RMK A01 T03720170  RH  031%=      5-min Rain = 0
KWE1 032050Z 09009KT 37/17 A2997 RMK A01 T03710171  RH  031%=      5-min Rain = 0
KWE1 032051Z 09009KT 37/17 A2997 RMK A01 T03710169  RH  030%=      5-min Rain = 0
KWE1 032052Z 12008KT 37/17 A2997 RMK A01 T03680170  RH  031%=      5-min Rain = 0
KWE1 032053Z 12011KT 37/17 A2997 RMK A01 T03700173  RH  031%=      5-min Rain = 0
KWE1 032054Z 14008G13KT 38/17 A2997 RMK A01 T03780173  RH  030%=      5-min Rain = 0
KWE1 032055Z 14009KT 38/17 A2997 RMK A01 T03810172  RH  029%=      5-min Rain = 0
KWE1 032056Z 15009KT 38/17 A2997 RMK A01 T03800172  RH  030%=      5-min Rain = 0
KWE1 032057Z 14007KT 38/17 A2996 RMK A01 T03800172  RH  030%=      5-min Rain = 0
KWE1 032058Z 13006KT 38/17 A2996 RMK A01 T03800170  RH  029%=      5-min Rain = 0
KWE1 032059Z 14004KT 38/17 A2996 RMK A01 T03750169  RH  030%=      5-min Rain = 0
KWE1 032100Z 17006KT 37/17 A2996 RMK A01 T03740171  RH  030%=      5-min Rain = 0
KWE1 032101Z 16008G13KT 38/17 A2996 RMK A01 T03780169  RH  029%=      5-min Rain = 0
KWE1 032102Z 13010KT 38/17 A2996 RMK A01 T03770169  RH  029%=      5-min Rain = 0
KWE1 032103Z 13013KT 38/17 A2996 RMK A01 T03760171  RH  030%=      5-min Rain = 0
KWE1 032104Z 13008KT 38/17 A2996 RMK A01 T03750169  RH  030%=      5-min Rain = 0
KWE1 032105Z 11006KT 38/17 A2996 RMK A01 T03750168  RH  030%=      5-min Rain = 0
KWE1 032106Z 12005G12KT 37/17 A2996 RMK A01 T03730169  RH  030%=      5-min Rain = 0
KWE1 032107Z 14009KT 37/17 A2996 RMK A01 T03740174  RH  031%=      5-min Rain = 0
KWE1 032108Z 13009KT 38/17 A2996 RMK A01 T03800170  RH  029%=      5-min Rain = 0
KWE1 032109Z 15007KT 38/17 A2996 RMK A01 T03810169  RH  029%=      5-min Rain = 0
KWE1 032110Z 16009KT 38/17 A2996 RMK A01 T03810165  RH  028%=      5-min Rain = 0
KWE1 032111Z 17008KT 38/16 A2996 RMK A01 T03790163  RH  028%=      5-min Rain = 0
KWE1 032112Z 16007KT 38/17 A2996 RMK A01 T03770166  RH  029%=      5-min Rain = 0
KWE1 032113Z 15008KT 38/16 A2996 RMK A01 T03780163  RH  028%=      5-min Rain = 0
KWE1 032114Z 14008KT 38/17 A2996 RMK A01 T03810167  RH  028%=      5-min Rain = 0
KWE1 032115Z 14009KT 38/16 A2996 RMK A01 T03830159  RH  027%=      5-min Rain = 0
KWE1 032116Z 13006KT 38/16 A2996 RMK A01 T03800157  RH  027%=      5-min Rain = 0
KWE1 032117Z 10005KT 38/16 A2996 RMK A01 T03780163  RH  028%=      5-min Rain = 0
KWE1 032118Z 10005KT 38/16 A2996 RMK A01 T03770162  RH  028%=      5-min Rain = 0
KWE1 032119Z 09007G12KT 38/16 A2996 RMK A01 T03770162  RH  028%=      5-min Rain = 0
KWE1 032120Z 09007KT 37/16 A2995 RMK A01 T03730160  RH  028%=      5-min Rain = 0
KWE1 032121Z 09005KT 37/16 A2995 RMK A01 T03690162  RH  030%=      5-min Rain = 0
KWE1 032122Z 15005KT 37/17 A2995 RMK A01 T03670165  RH  030%=      5-min Rain = 0
KWE1 032123Z 14004KT 37/17 A2995 RMK A01 T03670167  RH  031%=      5-min Rain = 0
KWE1 032124Z 14008KT 37/17 A2995 RMK A01 T03680170  RH  031%=      5-min Rain = 0
KWE1 032125Z 15011KT 38/17 A2995 RMK A01 T03750171  RH  030%=      5-min Rain = 0
KWE1 032126Z 14010KT 38/17 A2995 RMK A01 T03790170  RH  029%=      5-min Rain = 0
KWE1 032127Z 15008KT 38/17 A2995 RMK A01 T03800171  RH  029%=      5-min Rain = 0
KWE1 032128Z 16009KT 38/17 A2995 RMK A01 T03830170  RH  029%=      5-min Rain = 0
KWE1 032129Z 12008KT 38/17 A2995 RMK A01 T03840170  RH  029%=      5-min Rain = 0
KWE1 032130Z 10006KT 38/17 A2995 RMK A01 T03820171  RH  029%=      5-min Rain = 0
KWE1 032131Z 11008KT 38/17 A2995 RMK A01 T03800171  RH  029%=      5-min Rain = 0
KWE1 032132Z 10011KT 38/17 A2995 RMK A01 T03790168  RH  029%=      5-min Rain = 0
KWE1 032133Z 10009KT 38/17 A2995 RMK A01 T03760165  RH  029%=      5-min Rain = 0
KWE1 032134Z 10007KT 37/16 A2995 RMK A01 T03720164  RH  029%=      5-min Rain = 0
KWE1 032135Z 13007KT 37/17 A2995 RMK A01 T03720165  RH  030%=      5-min Rain = 0
KWE1 032136Z 13007KT 37/17 A2995 RMK A01 T03720169  RH  030%=      5-min Rain = 0
KWE1 032137Z 13009KT 37/17 A2995 RMK A01 T03740169  RH  030%=      5-min Rain = 0
KWE1 032138Z 16009KT 38/17 A2995 RMK A01 T03750170  RH  030%=      5-min Rain = 0
KWE1 032139Z 17007KT 38/17 A2995 RMK A01 T03760170  RH  030%=      5-min Rain = 0
KWE1 032140Z 16010KT 38/17 A2995 RMK A01 T03800169  RH  029%=      5-min Rain = 0
KWE1 032141Z 16010KT 38/16 A2995 RMK A01 T03820161  RH  027%=      5-min Rain = 0
KWE1 032142Z 17006KT 38/16 A2995 RMK A01 T03780160  RH  028%=      5-min Rain = 0
KWE1 032143Z 16006KT 37/16 A2995 RMK A01 T03740162  RH  029%=      5-min Rain = 0
KWE1 032144Z 18005KT 37/17 A2995 RMK A01 T03720166  RH  030%=      5-min Rain = 0
KWE1 032145Z 17005KT 37/17 A2995 RMK A01 T03730167  RH  030%=      5-min Rain = 0
KWE1 032146Z 18005KT 37/17 A2994 RMK A01 T03730170  RH  030%=      5-min Rain = 0
KWE1 032147Z 12008KT 37/17 A2995 RMK A01 T03720171  RH  031%=      5-min Rain = 0
KWE1 032148Z 12011KT 37/17 A2995 RMK A01 T03730174  RH  031%=      5-min Rain = 0
KWE1 032149Z 13012KT 37/18 A2995 RMK A01 T03740175  RH  031%=      5-min Rain = 0
KWE1 032150Z 12007KT 37/18 A2995 RMK A01 T03740176  RH  031%=      5-min Rain = 0
KWE1 032151Z 11002G7KT 37/17 A2995 RMK A01 T03710174  RH  031%=      5-min Rain = 0
KWE1 032152Z 12003KT 37/18 A2994 RMK A01 T03700175  RH  032%=      5-min Rain = 0
KWE1 032153Z 15009G15KT 37/17 A2994 RMK A01 T03700174  RH  032%=      5-min Rain = 0
KWE1 032154Z 13011KT 37/17 A2994 RMK A01 T03720171  RH  031%=      5-min Rain = 0
KWE1 032155Z 14008KT 37/17 A2994 RMK A01 T03740172  RH  031%=      5-min Rain = 0
KWE1 032156Z 14008KT 38/17 A2994 RMK A01 T03760171  RH  030%=      5-min Rain = 0
KWE1 032157Z 14009KT 38/17 A2994 RMK A01 T03770170  RH  030%=      5-min Rain = 0
KWE1 032158Z 11009KT 38/17 A2994 RMK A01 T03780170  RH  030%=      5-min Rain = 0
KWE1 032159Z 10009KT 38/17 A2994 RMK A01 T03760165  RH  029%=      5-min Rain = 0
KWE1 032200Z 10007KT 37/16 A2994 RMK A01 T03720164  RH  029%=      5-min Rain = 0
KWE1 032201Z 11008KT 37/17 A2994 RMK A01 T03710167  RH  030%=      5-min Rain = 0
KWE1 032202Z 11008KT 37/18 A2994 RMK A01 T03710175  RH  032%=      5-min Rain = 0
KWE1 032203Z 10006KT 37/18 A2994 RMK A01 T03710177  RH  032%=      5-min Rain = 0
KWE1 032204Z 09004KT 37/18 A2994 RMK A01 T03700176  RH  032%=      5-min Rain = 0
KWE1 032205Z 11005KT 37/18 A2994 RMK A01 T03680176  RH  032%=      5-min Rain = 0
KWE1 032206Z 10007KT 37/18 A2994 RMK A01 T03670178  RH  033%=      5-min Rain = 0
KWE1 032207Z 12013KT 37/18 A2994 RMK A01 T03690175  RH  032%=      5-min Rain = 0
KWE1 032208Z 12010KT 37/18 A2994 RMK A01 T03690175  RH  032%=      5-min Rain = 0
KWE1 032209Z 12009KT 36/17 A2994 RMK A01 T03640174  RH  033%=      5-min Rain = 0
KWE1 032210Z 14007KT 36/17 A2994 RMK A01 T03620173  RH  033%=      5-min Rain = 0
KWE1 032211Z 13006KT 36/17 A2994 RMK A01 T03620173  RH  033%=      5-min Rain = 0
KWE1 032212Z 13006KT 36/17 A2994 RMK A01 T03610174  RH  033%=      5-min Rain = 0
KWE1 032213Z 15007KT 36/17 A2994 RMK A01 T03600172  RH  033%=      5-min Rain = 0
KWE1 032214Z 14006KT 36/17 A2994 RMK A01 T03600171  RH  033%=      5-min Rain = 0
KWE1 032215Z 13008G13KT 36/17 A2994 RMK A01 T03610172  RH  033%=      5-min Rain = 0
KWE1 032216Z 13011KT 36/17 A2994 RMK A01 T03610170  RH  032%=      5-min Rain = 0
KWE1 032217Z 12008KT 36/17 A2994 RMK A01 T03610169  RH  032%=      5-min Rain = 0
KWE1 032218Z 13010KT 36/17 A2994 RMK A01 T03600169  RH  032%=      5-min Rain = 0
KWE1 032219Z 13008KT 36/17 A2994 RMK A01 T03590168  RH  032%=      5-min Rain = 0
KWE1 032220Z 13008KT 36/17 A2994 RMK A01 T03590167  RH  032%=      5-min Rain = 0
KWE1 032221Z 13008KT 36/17 A2994 RMK A01 T03610167  RH  032%=      5-min Rain = 0
KWE1 032222Z 12007KT 36/17 A2994 RMK A01 T03620168  RH  032%=      5-min Rain = 0
KWE1 032223Z 12006KT 36/17 A2994 RMK A01 T03640169  RH  032%=      5-min Rain = 0
KWE1 032224Z 15008KT 37/17 A2994 RMK A01 T03670168  RH  031%=      5-min Rain = 0
KWE1 032225Z 16009KT 37/17 A2994 RMK A01 T03680167  RH  030%=      5-min Rain = 0
KWE1 032226Z 15009KT 37/17 A2994 RMK A01 T03690165  RH  030%=      5-min Rain = 0
KWE1 032227Z 15009KT 37/17 A2994 RMK A01 T03690165  RH  030%=      5-min Rain = 0
KWE1 032228Z 16011KT 37/17 A2994 RMK A01 T03690165  RH  030%=      5-min Rain = 0
KWE1 032229Z 16011KT 37/17 A2994 RMK A01 T03700166  RH  030%=      5-min Rain = 0
KWE1 032230Z 17010KT 37/17 A2994 RMK A01 T03720167  RH  030%=      5-min Rain = 0
KWE1 032231Z 16008KT 37/17 A2994 RMK A01 T03730167  RH  030%=      5-min Rain = 0
KWE1 032232Z 12009KT 38/17 A2994 RMK A01 T03750165  RH  029%=      5-min Rain = 0
KWE1 032233Z 13012KT 38/16 A2994 RMK A01 T03760164  RH  029%=      5-min Rain = 0
KWE1 032234Z 13010KT 38/16 A2994 RMK A01 T03760163  RH  029%=      5-min Rain = 0
KWE1 032235Z 14008KT 37/16 A2994 RMK A01 T03740159  RH  028%=      5-min Rain = 0
KWE1 032236Z 13009KT 37/16 A2994 RMK A01 T03730161  RH  029%=      5-min Rain = 0
KWE1 032237Z 15011KT 38/16 A2993 RMK A01 T03750159  RH  028%=      5-min Rain = 0
KWE1 032238Z 15009KT 38/16 A2993 RMK A01 T03750156  RH  027%=      5-min Rain = 0
KWE1 032239Z 12009KT 38/16 A2993 RMK A01 T03750155  RH  027%=      5-min Rain = 0
KWE1 032240Z 12011KT 38/15 A2994 RMK A01 T03750150  RH  026%=      5-min Rain = 0
KWE1 032241Z 11013KT 38/15 A2994 RMK A01 T03760148  RH  026%=      5-min Rain = 0
KWE1 032242Z 12011KT 37/15 A2994 RMK A01 T03740148  RH  026%=      5-min Rain = 0
KWE1 032243Z 15009KT 37/15 A2993 RMK A01 T03730150  RH  027%=      5-min Rain = 0
KWE1 032244Z 15013KT 38/15 A2993 RMK A01 T03750149  RH  026%=      5-min Rain = 0
KWE1 032245Z 14011KT 38/15 A2994 RMK A01 T03750150  RH  026%=      5-min Rain = 0
KWE1 032246Z 12009KT 37/15 A2994 RMK A01 T03740149  RH  026%=      5-min Rain = 0
KWE1 032247Z 13007KT 37/15 A2994 RMK A01 T03690146  RH  026%=      5-min Rain = 0
KWE1 032248Z 12008KT 37/15 A2994 RMK A01 T03660146  RH  027%=      5-min Rain = 0
KWE1 032249Z 12007KT 36/14 A2994 RMK A01 T03640143  RH  027%=      5-min Rain = 0
KWE1 032250Z 11010KT 36/14 A2994 RMK A01 T03630143  RH  027%=      5-min Rain = 0
KWE1 032251Z 12011KT 36/14 A2994 RMK A01 T03640143  RH  027%=      5-min Rain = 0
KWE1 032252Z 10010KT 37/14 A2994 RMK A01 T03660143  RH  027%=      5-min Rain = 0
KWE1 032253Z 11008KT 37/14 A2994 RMK A01 T03660142  RH  026%=      5-min Rain = 0
KWE1 032254Z 11007KT 37/14 A2994 RMK A01 T03670142  RH  026%=      5-min Rain = 0
KWE1 032255Z 11010KT 37/14 A2994 RMK A01 T03690144  RH  026%=      5-min Rain = 0
KWE1 032256Z 11010KT 37/14 A2994 RMK A01 T03700142  RH  026%=      5-min Rain = 0
KWE1 032257Z 09010KT 37/14 A2993 RMK A01 T03700140  RH  025%=      5-min Rain = 0
KWE1 032258Z 09010KT 37/14 A2993 RMK A01 T03690142  RH  026%=      5-min Rain = 0
KWE1 032259Z 12011G16KT 37/14 A2993 RMK A01 T03690143  RH  026%=      5-min Rain = 0
KWE1 032300Z 12011KT 37/15 A2993 RMK A01 T03690146  RH  027%=      5-min Rain = 0
KWE1 032301Z 12009KT 37/15 A2993 RMK A01 T03690145  RH  027%=      5-min Rain = 0
KWE1 032302Z 12009KT 37/15 A2993 RMK A01 T03690146  RH  027%=      5-min Rain = 0
KWE1 032303Z 12008KT 37/14 A2993 RMK A01 T03690142  RH  026%=      5-min Rain = 0
KWE1 032304Z 13011KT 37/14 A2993 RMK A01 T03690140  RH  026%=      5-min Rain = 0
KWE1 032305Z 14012KT 37/14 A2993 RMK A01 T03700139  RH  025%=      5-min Rain = 0
KWE1 032306Z 15012KT 37/14 A2993 RMK A01 T03700138  RH  025%=      5-min Rain = 0
KWE1 032307Z 15010KT 37/14 A2993 RMK A01 T03720137  RH  025%=      5-min Rain = 0
KWE1 032308Z 16010KT 37/14 A2993 RMK A01 T03740136  RH  024%=      5-min Rain = 0
KWE1 032309Z 15011KT 37/14 A2993 RMK A01 T03730135  RH  024%=      5-min Rain = 0
KWE1 032310Z 14014KT 37/13 A2993 RMK A01 T03730134  RH  024%=      5-min Rain = 0
KWE1 032311Z 15013KT 37/13 A2993 RMK A01 T03730133  RH  024%=      5-min Rain = 0
KWE1 032312Z 16011KT 37/13 A2993 RMK A01 T03740133  RH  024%=      5-min Rain = 0
KWE1 032313Z 17008KT 37/13 A2993 RMK A01 T03740132  RH  024%=      5-min Rain = 0
KWE1 032314Z 14008KT 37/13 A2993 RMK A01 T03740133  RH  024%=      5-min Rain = 0
KWE1 032315Z 13009KT 37/13 A2993 RMK A01 T03740133  RH  024%=      5-min Rain = 0
KWE1 032316Z 14011KT 37/13 A2993 RMK A01 T03730132  RH  024%=      5-min Rain = 0
KWE1 032317Z 13008KT 37/13 A2993 RMK A01 T03720130  RH  024%=      5-min Rain = 0
KWE1 032318Z 13010KT 37/13 A2993 RMK A01 T03700131  RH  024%=      5-min Rain = 0
KWE1 032319Z 12012KT 37/13 A2993 RMK A01 T03710131  RH  024%=      5-min Rain = 0
KWE1 032320Z 12011KT 37/13 A2993 RMK A01 T03700128  RH  024%=      5-min Rain = 0
KWE1 032321Z 12010KT 37/13 A2993 RMK A01 T03680127  RH  024%=      5-min Rain = 0
KWE1 032322Z 12010KT 37/13 A2993 RMK A01 T03680128  RH  024%=      5-min Rain = 0
KWE1 032323Z 11009KT 37/13 A2993 RMK A01 T03670129  RH  024%=      5-min Rain = 0
KWE1 032324Z 12008KT 37/13 A2993 RMK A01 T03670130  RH  024%=      5-min Rain = 0
KWE1 032325Z 11009KT 37/13 A2993 RMK A01 T03680131  RH  024%=      5-min Rain = 0
KWE1 032326Z 12008KT 37/13 A2993 RMK A01 T03680130  RH  024%=      5-min Rain = 0
KWE1 032327Z 11009KT 37/13 A2993 RMK A01 T03690131  RH  024%=      5-min Rain = 0
KWE1 032328Z 09007KT 37/13 A2993 RMK A01 T03680130  RH  024%=      5-min Rain = 0
KWE1 032329Z 12010KT 37/13 A2993 RMK A01 T03670132  RH  025%=      5-min Rain = 0
KWE1 032330Z 12012KT 37/13 A2993 RMK A01 T03680131  RH  024%=      5-min Rain = 0
KWE1 032331Z 12012KT 37/13 A2993 RMK A01 T03670131  RH  024%=      5-min Rain = 0
KWE1 032332Z 12012KT 37/13 A2993 RMK A01 T03670127  RH  024%=      5-min Rain = 0
KWE1 032333Z 13011KT 37/13 A2993 RMK A01 T03660127  RH  024%=      5-min Rain = 0
KWE1 032334Z 13009KT 37/12 A2993 RMK A01 T03660123  RH  023%=      5-min Rain = 0
KWE1 032335Z 11010KT 37/13 A2993 RMK A01 T03660125  RH  024%=      5-min Rain = 0
KWE1 032336Z 11010KT 37/13 A2993 RMK A01 T03660126  RH  024%=      5-min Rain = 0
KWE1 032337Z 12010KT 37/13 A2993 RMK A01 T03650126  RH  024%=      5-min Rain = 0
KWE1 032338Z 12010KT 37/13 A2993 RMK A01 T03650126  RH  024%=      5-min Rain = 0
KWE1 032339Z 11007KT 37/12 A2993 RMK A01 T03650124  RH  024%=      5-min Rain = 0
KWE1 032340Z 11008KT 37/13 A2993 RMK A01 T03650126  RH  024%=      5-min Rain = 0
KWE1 032341Z 12007KT 37/12 A2993 RMK A01 T03650123  RH  023%=      5-min Rain = 0
KWE1 032342Z 14007KT 37/12 A2993 RMK A01 T03660123  RH  023%=      5-min Rain = 0
KWE1 032343Z 14007KT 37/12 A2993 RMK A01 T03680120  RH  023%=      5-min Rain = 0
KWE1 032344Z 13009KT 37/12 A2993 RMK A01 T03680120  RH  023%=      5-min Rain = 0
KWE1 032345Z 11008KT 37/12 A2993 RMK A01 T03690118  RH  022%=      5-min Rain = 0
KWE1 032346Z 11007KT 37/12 A2993 RMK A01 T03690121  RH  023%=      5-min Rain = 0
KWE1 032347Z 11008KT 37/12 A2993 RMK A01 T03680122  RH  023%=      5-min Rain = 0
KWE1 032348Z 11008KT 37/12 A2993 RMK A01 T03690117  RH  022%=      5-min Rain = 0
KWE1 032349Z 12009KT 37/12 A2993 RMK A01 T03680117  RH  022%=      5-min Rain = 0
KWE1 032350Z 13009KT 37/12 A2993 RMK A01 T03670115  RH  022%=      5-min Rain = 0
KWE1 032351Z 12009KT 37/11 A2993 RMK A01 T03670114  RH  022%=      5-min Rain = 0
KWE1 032352Z 12008KT 37/12 A2993 RMK A01 T03670116  RH  022%=      5-min Rain = 0
KWE1 032353Z 11008KT 37/12 A2993 RMK A01 T03670115  RH  022%=      5-min Rain = 0
KWE1 032354Z 11006KT 37/12 A2993 RMK A01 T03650115  RH  022%=      5-min Rain = 0
KWE1 032355Z 12006KT 37/12 A2993 RMK A01 T03650118  RH  023%=      5-min Rain = 0
KWE1 032356Z 14008KT 37/12 A2993 RMK A01 T03650116  RH  022%=      5-min Rain = 0
KWE1 032357Z 13008KT 37/12 A2993 RMK A01 T03660117  RH  022%=      5-min Rain = 0
KWE1 032358Z 14007KT 37/12 A2993 RMK A01 T03670118  RH  022%=      5-min Rain = 0
KWE1 032359Z 13008KT 37/12 A2993 RMK A01 T03680119  RH  022%=      5-min Rain = 0
KWE1 040000Z 11007KT 37/12 A2993 RMK A01 T03680120  RH  023%=      5-min Rain = 0
KWE1 040001Z 12009KT 37/12 A2993 RMK A01 T03670121  RH  023%=      5-min Rain = 0
KWE1 040002Z 11008KT 37/12 A2993 RMK A01 T03660124  RH  023%=      5-min Rain = 0
KWE1 040003Z 12007KT 37/13 A2993 RMK A01 T03650125  RH  024%=      5-min Rain = 0
KWE1 040004Z 13007KT 36/12 A2993 RMK A01 T03640122  RH  023%=      5-min Rain = 0
KWE1 040005Z 11007KT 36/12 A2993 RMK A01 T03640122  RH  023%=      5-min Rain = 0
KWE1 040006Z 12007KT 37/13 A2993 RMK A01 T03650125  RH  024%=      5-min Rain = 0
KWE1 040007Z 11008KT 36/12 A2993 RMK A01 T03640123  RH  024%=      5-min Rain = 0
KWE1 040008Z 11008KT 36/12 A2993 RMK A01 T03640119  RH  023%=      5-min Rain = 0
KWE1 040009Z 11008KT 36/12 A2993 RMK A01 T03640120  RH  023%=      5-min Rain = 0
KWE1 040010Z 11007KT 36/12 A2993 RMK A01 T03630120  RH  023%=      5-min Rain = 0
KWE1 040011Z 12008KT 36/12 A2993 RMK A01 T03630121  RH  023%=      5-min Rain = 0
KWE1 040012Z 12009KT 36/12 A2993 RMK A01 T03630123  RH  024%=      5-min Rain = 0
KWE1 040013Z 11008KT 36/12 A2993 RMK A01 T03630124  RH  024%=      5-min Rain = 0
KWE1 040014Z 10008KT 36/13 A2993 RMK A01 T03620125  RH  024%=      5-min Rain = 0
KWE1 040015Z 11008KT 36/13 A2993 RMK A01 T03620125  RH  024%=      5-min Rain = 0
KWE1 040016Z 13007KT 36/13 A2993 RMK A01 T03620125  RH  024%=      5-min Rain = 0
KWE1 040017Z 15008KT 36/13 A2993 RMK A01 T03620128  RH  025%=      5-min Rain = 0
KWE1 040018Z 12007KT 36/13 A2993 RMK A01 T03630129  RH  025%=      5-min Rain = 0
KWE1 040019Z 12007KT 36/13 A2993 RMK A01 T03630130  RH  025%=      5-min Rain = 0
KWE1 040020Z 12007KT 36/13 A2993 RMK A01 T03630131  RH  025%=      5-min Rain = 0
KWE1 040021Z 12006KT 36/13 A2993 RMK A01 T03620131  RH  025%=      5-min Rain = 0
KWE1 040022Z 12006KT 36/13 A2993 RMK A01 T03620131  RH  025%=      5-min Rain = 0
KWE1 040023Z 11006KT 36/13 A2993 RMK A01 T03620131  RH  025%=      5-min Rain = 0
KWE1 040024Z 11007KT 36/13 A2993 RMK A01 T03620133  RH  025%=      5-min Rain = 0
KWE1 040025Z 12008KT 36/13 A2993 RMK A01 T03610131  RH  025%=      5-min Rain = 0
KWE1 040026Z 12007KT 36/13 A2993 RMK A01 T03610132  RH  025%=      5-min Rain = 0
KWE1 040027Z 13007KT 36/13 A2993 RMK A01 T03610132  RH  025%=      5-min Rain = 0
KWE1 040028Z 14008KT 36/13 A2993 RMK A01 T03610132  RH  025%=      5-min Rain = 0
KWE1 040029Z 13008KT 36/13 A2993 RMK A01 T03620132  RH  025%=      5-min Rain = 0
KWE1 040030Z 12006KT 36/13 A2993 RMK A01 T03630132  RH  025%=      5-min Rain = 0
KWE1 040031Z 13007KT 36/13 A2993 RMK A01 T03620131  RH  025%=      5-min Rain = 0
KWE1 040032Z 11006KT 36/13 A2993 RMK A01 T03620130  RH  025%=      5-min Rain = 0
KWE1 040033Z 11006KT 36/13 A2993 RMK A01 T03610130  RH  025%=      5-min Rain = 0
KWE1 040034Z 11005KT 36/13 A2993 RMK A01 T03600131  RH  025%=      5-min Rain = 0
KWE1 040035Z 11006KT 36/13 A2993 RMK A01 T03600130  RH  025%=      5-min Rain = 0
KWE1 040036Z 11006KT 36/13 A2993 RMK A01 T03590131  RH  025%=      5-min Rain = 0
KWE1 040037Z 11008KT 36/13 A2993 RMK A01 T03590133  RH  026%=      5-min Rain = 0
KWE1 040038Z 11008KT 36/13 A2993 RMK A01 T03580134  RH  026%=      5-min Rain = 0
KWE1 040039Z 11007KT 36/14 A2993 RMK A01 T03580135  RH  026%=      5-min Rain = 0
KWE1 040040Z 12006KT 36/14 A2993 RMK A01 T03570136  RH  027%=      5-min Rain = 0
KWE1 040041Z 12006KT 36/14 A2993 RMK A01 T03570136  RH  027%=      5-min Rain = 0
KWE1 040042Z 12006KT 36/14 A2993 RMK A01 T03570136  RH  027%=      5-min Rain = 0
KWE1 040043Z 13006KT 36/14 A2993 RMK A01 T03570137  RH  027%=      5-min Rain = 0
KWE1 040044Z 13005KT 36/14 A2993 RMK A01 T03570139  RH  027%=      5-min Rain = 0
KWE1 040045Z 14006KT 36/14 A2993 RMK A01 T03580143  RH  028%=      5-min Rain = 0
KWE1 040046Z 14006KT 36/15 A2993 RMK A01 T03580146  RH  028%=      5-min Rain = 0
KWE1 040047Z 14006KT 36/15 A2993 RMK A01 T03580146  RH  028%=      5-min Rain = 0
KWE1 040048Z 14006KT 36/15 A2993 RMK A01 T03580146  RH  028%=      5-min Rain = 0
KWE1 040049Z 15006KT 36/15 A2993 RMK A01 T03580146  RH  028%=      5-min Rain = 0
KWE1 040050Z 16006KT 36/15 A2993 RMK A01 T03580145  RH  028%=      5-min Rain = 0
KWE1 040051Z 16007KT 36/15 A2993 RMK A01 T03580145  RH  028%=      5-min Rain = 0
KWE1 040052Z 16007KT 36/15 A2993 RMK A01 T03580146  RH  028%=      5-min Rain = 0
KWE1 040053Z 16006KT 36/15 A2993 RMK A01 T03580146  RH  028%=      5-min Rain = 0
KWE1 040054Z 15005KT 36/15 A2993 RMK A01 T03590146  RH  028%=      5-min Rain = 0
KWE1 040055Z 14005KT 36/15 A2993 RMK A01 T03590147  RH  028%=      5-min Rain = 0
KWE1 040056Z 14006KT 36/15 A2993 RMK A01 T03590149  RH  029%=      5-min Rain = 0
KWE1 040057Z 14006KT 36/15 A2993 RMK A01 T03580152  RH  029%=      5-min Rain = 0
KWE1 040058Z 14006KT 36/15 A2993 RMK A01 T03570153  RH  030%=      5-min Rain = 0
KWE1 040059Z 14005KT 36/15 A2993 RMK A01 T03560153  RH  030%=      5-min Rain = 0
KWE1 040100Z 12005KT 36/15 A2993 RMK A01 T03560154  RH  030%=      5-min Rain = 0
KWE1 040101Z 13004KT 36/15 A2993 RMK A01 T03550154  RH  030%=      5-min Rain = 0
KWE1 040102Z 12005KT 35/15 A2993 RMK A01 T03540153  RH  030%=      5-min Rain = 0
KWE1 040103Z 13006KT 35/15 A2993 RMK A01 T03530151  RH  030%=      5-min Rain = 0
KWE1 040104Z 13007KT 35/15 A2993 RMK A01 T03530150  RH  030%=      5-min Rain = 0
KWE1 040105Z 12005KT 35/15 A2993 RMK A01 T03530150  RH  030%=      5-min Rain = 0
KWE1 040106Z 13004KT 35/15 A2993 RMK A01 T03520151  RH  030%=      5-min Rain = 0
KWE1 040107Z 14005KT 35/15 A2993 RMK A01 T03520151  RH  030%=      5-min Rain = 0
KWE1 040108Z 14006KT 35/15 A2993 RMK A01 T03510151  RH  030%=      5-min Rain = 0
KWE1 040109Z 14007KT 35/15 A2993 RMK A01 T03510150  RH  030%=      5-min Rain = 0
KWE1 040110Z 13006KT 35/15 A2993 RMK A01 T03510151  RH  030%=      5-min Rain = 0
KWE1 040111Z 14007KT 35/15 A2993 RMK A01 T03510154  RH  031%=      5-min Rain = 0
KWE1 040112Z 14006KT 35/16 A2993 RMK A01 T03500156  RH  031%=      5-min Rain = 0
KWE1 040113Z 14006KT 35/16 A2993 RMK A01 T03500158  RH  032%=      5-min Rain = 0
KWE1 040114Z 13006KT 35/16 A2993 RMK A01 T03490158  RH  032%=      5-min Rain = 0
KWE1 040115Z 14005KT 35/16 A2993 RMK A01 T03490159  RH  032%=      5-min Rain = 0
KWE1 040116Z 14006KT 35/16 A2993 RMK A01 T03480160  RH  033%=      5-min Rain = 0
KWE1 040117Z 13007KT 35/16 A2993 RMK A01 T03480160  RH  033%=      5-min Rain = 0
KWE1 040118Z 14007KT 35/16 A2993 RMK A01 T03470160  RH  033%=      5-min Rain = 0
KWE1 040119Z 14007KT 35/16 A2993 RMK A01 T03470160  RH  033%=      5-min Rain = 0
KWE1 040120Z 15007KT 35/16 A2993 RMK A01 T03470160  RH  033%=      5-min Rain = 0
KWE1 040121Z 15006KT 35/16 A2993 RMK A01 T03470160  RH  033%=      5-min Rain = 0
KWE1 040122Z 15006KT 35/16 A2993 RMK A01 T03460160  RH  033%=      5-min Rain = 0
KWE1 040123Z 15006KT 35/16 A2993 RMK A01 T03460161  RH  033%=      5-min Rain = 0
KWE1 040124Z 15007KT 35/16 A2993 RMK A01 T03450161  RH  033%=      5-min Rain = 0
KWE1 040125Z 15006KT 35/16 A2993 RMK A01 T03450162  RH  034%=      5-min Rain = 0
KWE1 040126Z 15006KT 34/16 A2993 RMK A01 T03440161  RH  034%=      5-min Rain = 0
KWE1 040127Z 15005KT 34/16 A2993 RMK A01 T03440161  RH  034%=      5-min Rain = 0
KWE1 040128Z 15005KT 34/16 A2993 RMK A01 T03430161  RH  034%=      5-min Rain = 0
KWE1 040129Z 15007KT 34/16 A2993 RMK A01 T03420162  RH  034%=      5-min Rain = 0
KWE1 040130Z 15006KT 34/16 A2993 RMK A01 T03420162  RH  034%=      5-min Rain = 0
KWE1 040131Z 15006KT 34/16 A2993 RMK A01 T03410163  RH  035%=      5-min Rain = 0
KWE1 040132Z 15005KT 34/16 A2993 RMK A01 T03410164  RH  035%=      5-min Rain = 0
KWE1 040133Z 15006KT 34/16 A2993 RMK A01 T03410163  RH  035%=      5-min Rain = 0
KWE1 040134Z 14005KT 34/16 A2993 RMK A01 T03400164  RH  035%=      5-min Rain = 0
KWE1 040135Z 14005KT 34/16 A2993 RMK A01 T03400164  RH  035%=      5-min Rain = 0
KWE1 040136Z 14005KT 34/16 A2993 RMK A01 T03390164  RH  035%=      5-min Rain = 0
KWE1 040137Z 14005KT 34/17 A2994 RMK A01 T03380165  RH  036%=      5-min Rain = 0
KWE1 040138Z 13005KT 34/17 A2994 RMK A01 T03370165  RH  036%=      5-min Rain = 0
KWE1 040139Z 12004KT 34/17 A2994 RMK A01 T03360166  RH  036%=      5-min Rain = 0
KWE1 040140Z 11004KT 34/17 A2994 RMK A01 T03350166  RH  036%=      5-min Rain = 0
KWE1 040141Z 12006KT 33/17 A2994 RMK A01 T03340167  RH  037%=      5-min Rain = 0
KWE1 040142Z 11006KT 33/17 A2994 RMK A01 T03320167  RH  037%=      5-min Rain = 0
KWE1 040143Z 11005KT 33/17 A2994 RMK A01 T03320168  RH  038%=      5-min Rain = 0
KWE1 040144Z 13006KT 33/17 A2994 RMK A01 T03310169  RH  038%=      5-min Rain = 0
KWE1 040145Z 13006KT 33/17 A2994 RMK A01 T03310170  RH  038%=      5-min Rain = 0
KWE1 040146Z 13006KT 33/17 A2994 RMK A01 T03300169  RH  038%=      5-min Rain = 0
KWE1 040147Z 12005KT 33/17 A2994 RMK A01 T03300169  RH  038%=      5-min Rain = 0
KWE1 040148Z 13005KT 33/17 A2994 RMK A01 T03300169  RH  038%=      5-min Rain = 0
KWE1 040149Z 13005KT 33/17 A2994 RMK A01 T03300170  RH  038%=      5-min Rain = 0
KWE1 040150Z 13005KT 33/17 A2994 RMK A01 T03290169  RH  039%=      5-min Rain = 0
KWE1 040151Z 13006KT 33/17 A2994 RMK A01 T03290170  RH  039%=      5-min Rain = 0
KWE1 040152Z 13009KT 33/17 A2994 RMK A01 T03290169  RH  038%=      5-min Rain = 0
KWE1 040153Z 13006KT 33/17 A2994 RMK A01 T03300169  RH  038%=      5-min Rain = 0
KWE1 040154Z 13008KT 33/17 A2994 RMK A01 T03300169  RH  038%=      5-min Rain = 0
KWE1 040155Z 13007KT 33/17 A2994 RMK A01 T03310169  RH  038%=      5-min Rain = 0
KWE1 040156Z 13006KT 33/17 A2994 RMK A01 T03310169  RH  038%=      5-min Rain = 0
KWE1 040157Z 13006KT 33/17 A2994 RMK A01 T03300169  RH  038%=      5-min Rain = 0
KWE1 040158Z 13006KT 33/17 A2994 RMK A01 T03300170  RH  038%=      5-min Rain = 0
KWE1 040159Z 13005KT 33/17 A2994 RMK A01 T03290170  RH  038%=      5-min Rain = 0
KWE1 040200Z 12005KT 33/17 A2994 RMK A01 T03290170  RH  039%=      5-min Rain = 0
KWE1 040201Z 13006KT 33/17 A2994 RMK A01 T03280170  RH  039%=      5-min Rain = 0
KWE1 040202Z 13007KT 33/17 A2994 RMK A01 T03270170  RH  039%=      5-min Rain = 0
KWE1 040203Z 13007KT 33/17 A2994 RMK A01 T03270171  RH  039%=      5-min Rain = 0
KWE1 040204Z 13006KT 33/17 A2994 RMK A01 T03270171  RH  039%=      5-min Rain = 0
KWE1 040205Z 13007KT 33/17 A2994 RMK A01 T03260171  RH  040%=      5-min Rain = 0
KWE1 040206Z 13006KT 33/17 A2994 RMK A01 T03260172  RH  040%=      5-min Rain = 0
KWE1 040207Z 13006KT 33/17 A2994 RMK A01 T03260172  RH  040%=      5-min Rain = 0
KWE1 040208Z 13006KT 33/17 A2994 RMK A01 T03250172  RH  040%=      5-min Rain = 0
KWE1 040209Z 13006KT 33/17 A2994 RMK A01 T03250173  RH  040%=      5-min Rain = 0
KWE1 040210Z 13007KT 33/17 A2994 RMK A01 T03250173  RH  040%=      5-min Rain = 0
KWE1 040211Z 13007KT 33/17 A2994 RMK A01 T03250174  RH  041%=      5-min Rain = 0
KWE1 040212Z 13008KT 33/18 A2994 RMK A01 T03250175  RH  041%=      5-min Rain = 0
KWE1 040213Z 13007KT 33/17 A2994 RMK A01 T03250174  RH  041%=      5-min Rain = 0
KWE1 040214Z 13008KT 33/18 A2994 RMK A01 T03250175  RH  041%=      5-min Rain = 0
KWE1 040215Z 13008KT 33/18 A2994 RMK A01 T03250175  RH  041%=      5-min Rain = 0
KWE1 040216Z 13009KT 32/18 A2994 RMK A01 T03240175  RH  041%=      5-min Rain = 0
KWE1 040217Z 13008KT 32/18 A2994 RMK A01 T03230176  RH  041%=      5-min Rain = 0
KWE1 040218Z 13008KT 32/18 A2994 RMK A01 T03230176  RH  042%=      5-min Rain = 0
KWE1 040219Z 13008KT 32/18 A2994 RMK A01 T03230176  RH  042%=      5-min Rain = 0
KWE1 040220Z 14008KT 32/18 A2994 RMK A01 T03220177  RH  042%=      5-min Rain = 0
KWE1 040221Z 13007KT 32/18 A2994 RMK A01 T03220176  RH  042%=      5-min Rain = 0
KWE1 040222Z 13007KT 32/18 A2995 RMK A01 T03210177  RH  042%=      5-min Rain = 0
KWE1 040223Z 13008KT 32/18 A2995 RMK A01 T03200177  RH  043%=      5-min Rain = 0
KWE1 040224Z 13007KT 32/18 A2995 RMK A01 T03200177  RH  043%=      5-min Rain = 0
KWE1 040225Z 13007KT 32/18 A2995 RMK A01 T03200177  RH  043%=      5-min Rain = 0
KWE1 040226Z 13007KT 32/18 A2995 RMK A01 T03200178  RH  043%=      5-min Rain = 0
KWE1 040227Z 13008KT 32/18 A2995 RMK A01 T03190178  RH  043%=      5-min Rain = 0
KWE1 040228Z 13008KT 32/18 A2995 RMK A01 T03200178  RH  043%=      5-min Rain = 0
KWE1 040229Z 13008KT 32/18 A2995 RMK A01 T03190178  RH  043%=      5-min Rain = 0
KWE1 040230Z 13007KT 32/18 A2995 RMK A01 T03190178  RH  043%=      5-min Rain = 0
KWE1 040231Z 13007KT 32/18 A2995 RMK A01 T03180178  RH  043%=      5-min Rain = 0
KWE1 040232Z 13007KT 32/18 A2995 RMK A01 T03180178  RH  043%=      5-min Rain = 0
KWE1 040233Z 13007KT 32/18 A2995 RMK A01 T03180178  RH  043%=      5-min Rain = 0
KWE1 040234Z 13006KT 32/18 A2995 RMK A01 T03170177  RH  043%=      5-min Rain = 0
KWE1 040235Z 13006KT 32/18 A2995 RMK A01 T03170177  RH  043%=      5-min Rain = 0
KWE1 040236Z 13007KT 32/18 A2995 RMK A01 T03170176  RH  043%=      5-min Rain = 0
KWE1 040237Z 13006KT 32/18 A2995 RMK A01 T03160176  RH  043%=      5-min Rain = 0
KWE1 040238Z 13007KT 32/18 A2996 RMK A01 T03160176  RH  043%=      5-min Rain = 0
KWE1 040239Z 13007KT 32/18 A2996 RMK A01 T03160177  RH  043%=      5-min Rain = 0
KWE1 040240Z 13006KT 32/18 A2996 RMK A01 T03150176  RH  043%=      5-min Rain = 0
KWE1 040241Z 13006KT 32/18 A2996 RMK A01 T03150175  RH  043%=      5-min Rain = 0
KWE1 040242Z 13006KT 31/17 A2996 RMK A01 T03140174  RH  043%=      5-min Rain = 0
KWE1 040243Z 12006KT 31/17 A2996 RMK A01 T03140173  RH  043%=      5-min Rain = 0
KWE1 040244Z 13007KT 31/17 A2996 RMK A01 T03140171  RH  042%=      5-min Rain = 0
KWE1 040245Z 13008KT 31/17 A2996 RMK A01 T03140171  RH  043%=      5-min Rain = 0
KWE1 040246Z 13007KT 31/17 A2996 RMK A01 T03140172  RH  043%=      5-min Rain = 0
KWE1 040247Z 13007KT 31/17 A2996 RMK A01 T03140170  RH  042%=      5-min Rain = 0
KWE1 040248Z 13007KT 31/17 A2996 RMK A01 T03140171  RH  042%=      5-min Rain = 0
KWE1 040249Z 13007KT 31/17 A2996 RMK A01 T03140171  RH  042%=      5-min Rain = 0
KWE1 040250Z 13008KT 31/17 A2996 RMK A01 T03140170  RH  042%=      5-min Rain = 0
KWE1 040251Z 13008KT 31/17 A2996 RMK A01 T03130169  RH  042%=      5-min Rain = 0
KWE1 040252Z 13008KT 31/17 A2996 RMK A01 T03130168  RH  042%=      5-min Rain = 0
KWE1 040253Z 13008KT 31/17 A2996 RMK A01 T03130169  RH  042%=      5-min Rain = 0
KWE1 040254Z 13007KT 31/17 A2996 RMK A01 T03130168  RH  042%=      5-min Rain = 0
KWE1 040255Z 13008KT 31/17 A2996 RMK A01 T03130168  RH  042%=      5-min Rain = 0
KWE1 040256Z 13008KT 31/17 A2996 RMK A01 T03130168  RH  042%=      5-min Rain = 0
KWE1 040257Z 13008KT 31/17 A2996 RMK A01 T03120168  RH  042%=      5-min Rain = 0
KWE1 040258Z 13008KT 31/17 A2996 RMK A01 T03120168  RH  042%=      5-min Rain = 0
KWE1 040259Z 13008KT 31/17 A2996 RMK A01 T03120168  RH  042%=      5-min Rain = 0
KWE1 040300Z 13007KT 31/17 A2996 RMK A01 T03120167  RH  042%=      5-min Rain = 0
KWE1 040301Z 13007KT 31/17 A2996 RMK A01 T03110168  RH  042%=      5-min Rain = 0
KWE1 040302Z 13007KT 31/17 A2996 RMK A01 T03100167  RH  042%=      5-min Rain = 0
KWE1 040303Z 13008KT 31/17 A2996 RMK A01 T03100167  RH  042%=      5-min Rain = 0
KWE1 040304Z 13008KT 31/17 A2996 RMK A01 T03100168  RH  042%=      5-min Rain = 0
KWE1 040305Z 13008KT 31/17 A2996 RMK A01 T03100168  RH  043%=      5-min Rain = 0
KWE1 040306Z 13008KT 31/17 A2996 RMK A01 T03090169  RH  043%=      5-min Rain = 0
KWE1 040307Z 13007KT 31/17 A2996 RMK A01 T03090168  RH  043%=      5-min Rain = 0
KWE1 040308Z 13008KT 31/17 A2997 RMK A01 T03090168  RH  043%=      5-min Rain = 0
KWE1 040309Z 13008KT 31/17 A2997 RMK A01 T03090169  RH  043%=      5-min Rain = 0
KWE1 040310Z 13008KT 31/17 A2997 RMK A01 T03090168  RH  043%=      5-min Rain = 0
KWE1 040311Z 13007KT 31/17 A2997 RMK A01 T03090168  RH  043%=      5-min Rain = 0
KWE1 040312Z 13007KT 31/17 A2997 RMK A01 T03090168  RH  043%=      5-min Rain = 0
KWE1 040313Z 13007KT 31/17 A2997 RMK A01 T03090168  RH  043%=      5-min Rain = 0
KWE1 040314Z 13007KT 31/17 A2997 RMK A01 T03090168  RH  043%=      5-min Rain = 0
KWE1 040315Z 13007KT 31/17 A2997 RMK A01 T03080167  RH  043%=      5-min Rain = 0
KWE1 040316Z 13008KT 31/17 A2997 RMK A01 T03080167  RH  043%=      5-min Rain = 0
KWE1 040317Z 13007KT 31/17 A2997 RMK A01 T03090167  RH  042%=      5-min Rain = 0
KWE1 040318Z 13006KT 31/17 A2997 RMK A01 T03090167  RH  042%=      5-min Rain = 0
KWE1 040319Z 13006KT 31/17 A2997 RMK A01 T03090167  RH  042%=      5-min Rain = 0
KWE1 040320Z 13006KT 31/17 A2997 RMK A01 T03090167  RH  042%=      5-min Rain = 0
KWE1 040321Z 12006KT 31/17 A2997 RMK A01 T03090167  RH  043%=      5-min Rain = 0
KWE1 040322Z 12008KT 31/17 A2997 RMK A01 T03080167  RH  043%=      5-min Rain = 0
KWE1 040323Z 12007KT 31/17 A2997 RMK A01 T03080167  RH  043%=      5-min Rain = 0
KWE1 040324Z 12007KT 31/17 A2997 RMK A01 T03080167  RH  043%=      5-min Rain = 0
KWE1 040325Z 12006KT 31/17 A2998 RMK A01 T03080168  RH  043%=      5-min Rain = 0
KWE1 040326Z 12006KT 31/17 A2997 RMK A01 T03080168  RH  043%=      5-min Rain = 0
KWE1 040327Z 11006KT 31/17 A2997 RMK A01 T03080168  RH  043%=      5-min Rain = 0
KWE1 040328Z 12007KT 31/17 A2997 RMK A01 T03080168  RH  043%=      5-min Rain = 0
KWE1 040329Z 12007KT 31/17 A2997 RMK A01 T03080168  RH  043%=      5-min Rain = 0
KWE1 040330Z 12006KT 31/17 A2997 RMK A01 T03070168  RH  043%=      5-min Rain = 0
KWE1 040331Z 12008KT 31/17 A2997 RMK A01 T03070168  RH  043%=      5-min Rain = 0
KWE1 040332Z 12006KT 31/17 A2997 RMK A01 T03070167  RH  043%=      5-min Rain = 0
KWE1 040333Z 12007KT 31/17 A2997 RMK A01 T03070168  RH  043%=      5-min Rain = 0
KWE1 040334Z 12006KT 31/17 A2997 RMK A01 T03070168  RH  043%=      5-min Rain = 0
KWE1 040335Z 12006KT 31/17 A2997 RMK A01 T03060168  RH  044%=      5-min Rain = 0
KWE1 040336Z 12007KT 31/17 A2997 RMK A01 T03050168  RH  044%=      5-min Rain = 0
KWE1 040337Z 12006KT 31/17 A2997 RMK A01 T03050169  RH  044%=      5-min Rain = 0
KWE1 040338Z 11006KT 31/17 A2997 RMK A01 T03050169  RH  044%=      5-min Rain = 0
KWE1 040339Z 11006KT 30/17 A2997 RMK A01 T03040169  RH  044%=      5-min Rain = 0
KWE1 040340Z 11008KT 30/17 A2998 RMK A01 T03040169  RH  044%=      5-min Rain = 0
KWE1 040341Z 11007KT 30/17 A2998 RMK A01 T03040169  RH  044%=      5-min Rain = 0
KWE1 040342Z 11006KT 30/17 A2998 RMK A01 T03040170  RH  044%=      5-min Rain = 0
KWE1 040343Z 11007KT 30/17 A2998 RMK A01 T03040170  RH  045%=      5-min Rain = 0
KWE1 040344Z 11007KT 30/17 A2998 RMK A01 T03030169  RH  045%=      5-min Rain = 0
KWE1 040345Z 11005KT 30/17 A2998 RMK A01 T03030170  RH  045%=      5-min Rain = 0
KWE1 040346Z 11005KT 30/17 A2998 RMK A01 T03030170  RH  045%=      5-min Rain = 0
KWE1 040347Z 10005KT 30/17 A2998 RMK A01 T03020170  RH  045%=      5-min Rain = 0
KWE1 040348Z 10005KT 30/17 A2998 RMK A01 T03020170  RH  045%=      5-min Rain = 0
KWE1 040349Z 10006KT 30/17 A2998 RMK A01 T03010171  RH  046%=      5-min Rain = 0
KWE1 040350Z 10006KT 30/17 A2998 RMK A01 T02990171  RH  046%=      5-min Rain = 0
KWE1 040351Z 10005KT 30/17 A2998 RMK A01 T02980172  RH  047%=      5-min Rain = 0
KWE1 040352Z 10006KT 30/17 A2998 RMK A01 T02970172  RH  047%=      5-min Rain = 0
KWE1 040353Z 10006KT 30/17 A2998 RMK A01 T02970172  RH  047%=      5-min Rain = 0
KWE1 040354Z 10004KT 30/17 A2998 RMK A01 T02960172  RH  047%=      5-min Rain = 0
KWE1 040355Z 10006KT 30/17 A2998 RMK A01 T02960172  RH  047%=      5-min Rain = 0
KWE1 040356Z 11005KT 30/17 A2998 RMK A01 T02950173  RH  048%=      5-min Rain = 0
KWE1 040357Z 11006KT 30/17 A2998 RMK A01 T02950173  RH  048%=      5-min Rain = 0
KWE1 040358Z 11006KT 30/17 A2998 RMK A01 T02950173  RH  048%=      5-min Rain = 0
KWE1 040359Z 11006KT 30/17 A2998 RMK A01 T02950173  RH  048%=      5-min Rain = 0
KWE1 040400Z 11005KT 30/17 A2998 RMK A01 T02950173  RH  048%=      5-min Rain = 0
KWE1 040401Z 11006KT 30/17 A2998 RMK A01 T02950174  RH  048%=      5-min Rain = 0
KWE1 040402Z 11005KT 29/17 A2998 RMK A01 T02940174  RH  048%=      5-min Rain = 0
KWE1 040403Z 12005KT 29/17 A2998 RMK A01 T02940174  RH  048%=      5-min Rain = 0
KWE1 040404Z 12005KT 29/17 A2998 RMK A01 T02940174  RH  049%=      5-min Rain = 0
KWE1 040405Z 12006KT 30/18 A2998 RMK A01 T02950175  RH  048%=      5-min Rain = 0
KWE1 040406Z 12007KT 30/18 A2998 RMK A01 T02960175  RH  048%=      5-min Rain = 0
KWE1 040407Z 12007KT 30/18 A2998 RMK A01 T02970175  RH  048%=      5-min Rain = 0
KWE1 040408Z 12008KT 30/18 A2998 RMK A01 T02980175  RH  048%=      5-min Rain = 0
KWE1 040409Z 13007KT 30/18 A2998 RMK A01 T02990176  RH  048%=      5-min Rain = 0
KWE1 040410Z 13007KT 30/18 A2998 RMK A01 T02990176  RH  048%=      5-min Rain = 0
KWE1 040411Z 13007KT 30/18 A2998 RMK A01 T03000176  RH  048%=      5-min Rain = 0
KWE1 040412Z 13007KT 30/18 A2998 RMK A01 T02990176  RH  048%=      5-min Rain = 0
KWE1 040413Z 13007KT 30/18 A2998 RMK A01 T02990176  RH  048%=      5-min Rain = 0
KWE1 040414Z 13007KT 30/18 A2998 RMK A01 T02990176  RH  048%=      5-min Rain = 0
KWE1 040415Z 13007KT 30/18 A2998 RMK A01 T02990177  RH  048%=      5-min Rain = 0
KWE1 040416Z 13008KT 30/18 A2998 RMK A01 T02990177  RH  048%=      5-min Rain = 0
KWE1 040417Z 13009KT 30/18 A2998 RMK A01 T03000177  RH  048%=      5-min Rain = 0
KWE1 040418Z 13009KT 30/18 A2998 RMK A01 T02990177  RH  048%=      5-min Rain = 0
KWE1 040419Z 13008KT 30/18 A2998 RMK A01 T03000177  RH  048%=      5-min Rain = 0
KWE1 040420Z 14007KT 30/18 A2998 RMK A01 T03000177  RH  048%=      5-min Rain = 0
KWE1 040421Z 14007KT 30/18 A2998 RMK A01 T03000178  RH  048%=      5-min Rain = 0
KWE1 040422Z 13008KT 30/18 A2998 RMK A01 T02990178  RH  048%=      5-min Rain = 0
KWE1 040423Z 14007KT 30/18 A2998 RMK A01 T02990178  RH  048%=      5-min Rain = 0
KWE1 040424Z 14008KT 30/18 A2998 RMK A01 T02990178  RH  048%=      5-min Rain = 0
KWE1 040425Z 13008KT 30/18 A2998 RMK A01 T02990179  RH  048%=      5-min Rain = 0
KWE1 040426Z 14008KT 30/18 A2998 RMK A01 T03000180  RH  049%=      5-min Rain = 0
KWE1 040427Z 14008KT 30/18 A2998 RMK A01 T02990180  RH  049%=      5-min Rain = 0
KWE1 040428Z 13007KT 30/18 A2998 RMK A01 T02990180  RH  049%=      5-min Rain = 0
KWE1 040429Z 14006KT 30/18 A2998 RMK A01 T02990180  RH  049%=      5-min Rain = 0
KWE1 040430Z 14009KT 30/18 A2998 RMK A01 T02990181  RH  049%=      5-min Rain = 0
KWE1 040431Z 14009KT 30/18 A2998 RMK A01 T02980181  RH  049%=      5-min Rain = 0
KWE1 040432Z 14007KT 30/18 A2998 RMK A01 T02990181  RH  049%=      5-min Rain = 0
KWE1 040433Z 14007KT 30/18 A2998 RMK A01 T02980181  RH  049%=      5-min Rain = 0
KWE1 040434Z 14006KT 30/18 A2998 RMK A01 T02980181  RH  049%=      5-min Rain = 0
KWE1 040435Z 14007KT 30/18 A2998 RMK A01 T02980181  RH  049%=      5-min Rain = 0
KWE1 040436Z 14008KT 30/18 A2998 RMK A01 T02970181  RH  050%=      5-min Rain = 0
KWE1 040437Z 14010KT 30/18 A2998 RMK A01 T02970183  RH  050%=      5-min Rain = 0
KWE1 040438Z 14009KT 30/18 A2998 RMK A01 T02980184  RH  050%=      5-min Rain = 0
KWE1 040439Z 14009KT 30/18 A2998 RMK A01 T03000184  RH  050%=      5-min Rain = 0
KWE1 040440Z 13008KT 30/18 A2998 RMK A01 T03000184  RH  050%=      5-min Rain = 0
KWE1 040441Z 14008KT 30/18 A2998 RMK A01 T03000184  RH  050%=      5-min Rain = 0
KWE1 040442Z 13008KT 30/18 A2998 RMK A01 T03000184  RH  050%=      5-min Rain = 0
KWE1 040443Z 13009KT 30/18 A2998 RMK A01 T03000184  RH  050%=      5-min Rain = 0
KWE1 040444Z 14008KT 30/18 A2998 RMK A01 T02990184  RH  050%=      5-min Rain = 0
KWE1 040445Z 13009KT 30/18 A2998 RMK A01 T02990184  RH  050%=      5-min Rain = 0
KWE1 040446Z 14008KT 30/19 A2998 RMK A01 T02990185  RH  050%=      5-min Rain = 0
KWE1 040447Z 14009KT 30/19 A2998 RMK A01 T02990186  RH  051%=      5-min Rain = 0
KWE1 040448Z 13009KT 30/19 A2998 RMK A01 T02990185  RH  051%=      5-min Rain = 0
KWE1 040449Z 13010KT 30/19 A2998 RMK A01 T02980186  RH  051%=      5-min Rain = 0
KWE1 040450Z 13009KT 30/19 A2998 RMK A01 T02980186  RH  051%=      5-min Rain = 0
KWE1 040451Z 14008KT 30/19 A2998 RMK A01 T02980185  RH  051%=      5-min Rain = 0
KWE1 040452Z 14008KT 30/19 A2998 RMK A01 T02980185  RH  051%=      5-min Rain = 0
KWE1 040453Z 13009KT 30/19 A2998 RMK A01 T02970186  RH  051%=      5-min Rain = 0
KWE1 040454Z 14008KT 30/19 A2998 RMK A01 T02970187  RH  052%=      5-min Rain = 0
KWE1 040455Z 13009KT 30/19 A2998 RMK A01 T02960186  RH  052%=      5-min Rain = 0
KWE1 040456Z 14009KT 30/19 A2998 RMK A01 T02970187  RH  052%=      5-min Rain = 0
KWE1 040457Z 14008KT 30/19 A2998 RMK A01 T02970187  RH  052%=      5-min Rain = 0
KWE1 040458Z 14007KT 30/19 A2998 RMK A01 T02960187  RH  052%=      5-min Rain = 0
KWE1 040459Z 14009KT 30/19 A2998 RMK A01 T02950187  RH  052%=      5-min Rain = 0

Page generated in 0.1766 seconds.